ARG2571 NZAA-SAWH
Flight info
| Callsign | ARG2571 |
|---|---|
| Flight time | 7h 12m |
| Altitude | 34000 |
| Route | REKIS DCT NR/N0483F330 DCT 42S80 DCT 43S80 DCT 44S80 DCT 45S80 DCT 600521S1602012W/N0477F350 653912S1300903W 660300S1025944W/N0479F370 62S080W/N0471F380 DCT 56S070W DCT USU |
| Aircraft | B77W/H-SDE1E2E3FGHIJ2J3J4J5M1RWXY/LB1D1 |
Departure
| Time | 2026-05-08 19:13 |
|---|---|
| Airport | Auckland International Airport (NZAA) |
Arrival
| Time | 2026-05-09 02:26 |
|---|---|
| Airport | Ushuaia - Malvinas Argentinas International Airport (SAWH) |
| Time | Latitude | Longitude | Altitude | Speed | Heading |
|---|---|---|---|---|---|
| 2026-05-08 18:28 | -37.00830 | 174.78279 | 30 ft | 0 kts | 324° |
| 2026-05-08 19:06 | -37.00832 | 174.78281 | 30 ft | 2 kts | 324° |
| 2026-05-08 19:06 | -37.00853 | 174.78300 | 29 ft | 4 kts | 323° |
| 2026-05-08 19:06 | -37.00874 | 174.78320 | 28 ft | 4 kts | 324° |
| 2026-05-08 19:07 | -37.00894 | 174.78339 | 30 ft | 3 kts | 325° |
| 2026-05-08 19:07 | -37.00914 | 174.78346 | 30 ft | 4 kts | 33° |
| 2026-05-08 19:07 | -37.00934 | 174.78323 | 29 ft | 4 kts | 44° |
| 2026-05-08 19:07 | -37.00940 | 174.78316 | 30 ft | 0 kts | 41° |
| 2026-05-08 19:09 | -37.00939 | 174.78317 | 30 ft | 2 kts | 42° |
| 2026-05-08 19:09 | -37.00917 | 174.78375 | 30 ft | 13 kts | 71° |
| 2026-05-08 19:09 | -37.00921 | 174.78510 | 30 ft | 18 kts | 129° |
| 2026-05-08 19:09 | -37.00993 | 174.78622 | 30 ft | 18 kts | 93° |
| 2026-05-08 19:10 | -37.00966 | 174.78777 | 30 ft | 20 kts | 70° |
| 2026-05-08 19:10 | -37.00918 | 174.78953 | 30 ft | 23 kts | 72° |
| 2026-05-08 19:10 | -37.00864 | 174.79159 | 29 ft | 27 kts | 71° |
| 2026-05-08 19:10 | -37.00797 | 174.79390 | 30 ft | 30 kts | 69° |
| 2026-05-08 19:11 | -37.00728 | 174.79645 | 30 ft | 32 kts | 72° |
| 2026-05-08 19:11 | -37.00652 | 174.79922 | 30 ft | 34 kts | 70° |
| 2026-05-08 19:11 | -37.00599 | 174.80105 | 30 ft | 33 kts | 70° |
| 2026-05-08 19:11 | -37.00561 | 174.80440 | 30 ft | 29 kts | 118° |
| 2026-05-08 19:12 | -37.00685 | 174.80478 | 30 ft | 25 kts | 238° |
| 2026-05-08 19:12 | -37.00784 | 174.80149 | 30 ft | 64 kts | 250° |
| 2026-05-08 19:12 | -37.01022 | 174.79294 | 30 ft | 142 kts | 250° |
| 2026-05-08 19:12 | -37.01268 | 174.78403 | 31 ft | 185 kts | 251° |
| 2026-05-08 19:13 | -37.01701 | 174.76749 | 420 ft | 197 kts | 248° |
| 2026-05-08 19:13 | -37.02531 | 174.75411 | 1185 ft | 201 kts | 212° |
| 2026-05-08 19:13 | -37.03901 | 174.74941 | 1666 ft | 213 kts | 178° |
| 2026-05-08 19:13 | -37.05781 | 174.75924 | 1891 ft | 243 kts | 129° |
| 2026-05-08 19:14 | -37.06734 | 174.77727 | 2131 ft | 256 kts | 122° |
| 2026-05-08 19:14 | -37.07436 | 174.79001 | 2449 ft | 265 kts | 127° |
| 2026-05-08 19:14 | -37.08638 | 174.80778 | 2954 ft | 275 kts | 134° |
| 2026-05-08 19:14 | -37.10030 | 174.82465 | 3584 ft | 280 kts | 140° |
| 2026-05-08 19:15 | -37.11537 | 174.84041 | 4243 ft | 285 kts | 144° |
| 2026-05-08 19:15 | -37.13131 | 174.85544 | 4907 ft | 287 kts | 147° |
| 2026-05-08 19:15 | -37.14772 | 174.86987 | 5605 ft | 289 kts | 148° |
| 2026-05-08 19:15 | -37.16456 | 174.88404 | 6205 ft | 294 kts | 150° |
| 2026-05-08 19:16 | -37.18183 | 174.89819 | 6830 ft | 298 kts | 150° |
| 2026-05-08 19:16 | -37.19936 | 174.91231 | 7468 ft | 301 kts | 150° |
| 2026-05-08 19:16 | -37.21708 | 174.92654 | 8110 ft | 304 kts | 150° |
| 2026-05-08 19:16 | -37.23501 | 174.94084 | 8698 ft | 307 kts | 150° |
| 2026-05-08 19:17 | -37.25324 | 174.95534 | 9307 ft | 310 kts | 150° |
| 2026-05-08 19:17 | -37.27156 | 174.96994 | 9880 ft | 314 kts | 150° |
| 2026-05-08 19:17 | -37.29032 | 174.98486 | 10289 ft | 326 kts | 150° |
| 2026-05-08 19:17 | -37.30950 | 175.00014 | 10712 ft | 336 kts | 150° |
| 2026-05-08 19:18 | -37.32960 | 175.01661 | 10953 ft | 356 kts | 148° |
| 2026-05-08 19:18 | -37.35081 | 175.03438 | 11135 ft | 378 kts | 148° |
| 2026-05-08 19:18 | -37.37358 | 175.05358 | 11311 ft | 400 kts | 148° |
| 2026-05-08 19:18 | -37.39686 | 175.07332 | 11692 ft | 414 kts | 147° |
| 2026-05-08 19:19 | -37.42109 | 175.09388 | 12288 ft | 423 kts | 147° |
| 2026-05-08 19:19 | -37.44580 | 175.11483 | 12951 ft | 430 kts | 147° |
| 2026-05-08 19:19 | -37.47080 | 175.13601 | 13626 ft | 436 kts | 147° |
| 2026-05-08 19:19 | -37.49612 | 175.15746 | 14335 ft | 441 kts | 148° |
| 2026-05-08 19:20 | -37.52137 | 175.17882 | 14986 ft | 447 kts | 148° |
| 2026-05-08 19:20 | -37.53907 | 175.19379 | 15410 ft | 452 kts | 148° |
| 2026-05-08 19:20 | -37.57398 | 175.22337 | 16226 ft | 460 kts | 148° |
| 2026-05-08 19:20 | -37.60075 | 175.24610 | 16828 ft | 466 kts | 148° |
| 2026-05-08 19:21 | -37.62775 | 175.26902 | 17471 ft | 470 kts | 148° |
| 2026-05-08 19:21 | -37.65505 | 175.29221 | 18087 ft | 475 kts | 148° |
| 2026-05-08 19:21 | -37.68272 | 175.31573 | 18638 ft | 482 kts | 148° |
| 2026-05-08 19:21 | -37.71026 | 175.33916 | 19235 ft | 486 kts | 148° |
| 2026-05-08 19:22 | -37.73844 | 175.36316 | 19827 ft | 490 kts | 148° |
| 2026-05-08 19:22 | -37.76675 | 175.38731 | 20415 ft | 494 kts | 148° |
| 2026-05-08 19:22 | -37.79540 | 175.41176 | 20984 ft | 498 kts | 147° |
| 2026-05-08 19:22 | -37.82425 | 175.43642 | 21508 ft | 502 kts | 147° |
| 2026-05-08 19:23 | -37.85329 | 175.46127 | 22033 ft | 506 kts | 147° |
| 2026-05-08 19:23 | -37.88250 | 175.48628 | 22539 ft | 510 kts | 147° |
| 2026-05-08 19:23 | -37.91211 | 175.51166 | 23014 ft | 515 kts | 147° |
| 2026-05-08 19:23 | -37.94189 | 175.53721 | 23506 ft | 519 kts | 147° |
| 2026-05-08 19:24 | -37.97189 | 175.56296 | 23969 ft | 523 kts | 146° |
| 2026-05-08 19:24 | -38.00223 | 175.58902 | 24415 ft | 527 kts | 146° |
| 2026-05-08 19:24 | -38.03229 | 175.61488 | 24818 ft | 532 kts | 146° |
| 2026-05-08 19:24 | -38.06309 | 175.64141 | 25312 ft | 533 kts | 146° |
| 2026-05-08 19:25 | -38.09383 | 175.66791 | 25853 ft | 534 kts | 146° |
| 2026-05-08 19:25 | -38.12464 | 175.69451 | 26290 ft | 537 kts | 146° |
| 2026-05-08 19:25 | -38.15567 | 175.72132 | 26684 ft | 540 kts | 146° |
| 2026-05-08 19:25 | -38.18692 | 175.74834 | 27081 ft | 542 kts | 146° |
| 2026-05-08 19:26 | -38.21774 | 175.77503 | 27503 ft | 544 kts | 146° |
| 2026-05-08 19:26 | -38.24908 | 175.80219 | 27890 ft | 546 kts | 146° |
| 2026-05-08 19:26 | -38.28060 | 175.82953 | 28238 ft | 549 kts | 146° |
| 2026-05-08 19:26 | -38.31235 | 175.85709 | 28566 ft | 551 kts | 146° |
| 2026-05-08 19:27 | -38.34414 | 175.88471 | 28866 ft | 554 kts | 146° |
| 2026-05-08 19:27 | -38.37599 | 175.91245 | 29219 ft | 555 kts | 146° |
| 2026-05-08 19:27 | -38.40791 | 175.94028 | 29706 ft | 551 kts | 146° |
| 2026-05-08 19:27 | -38.43899 | 175.96742 | 30280 ft | 547 kts | 146° |
| 2026-05-08 19:28 | -38.47046 | 175.99491 | 30658 ft | 547 kts | 146° |
| 2026-05-08 19:28 | -38.50194 | 176.02240 | 30984 ft | 547 kts | 146° |
| 2026-05-08 19:28 | -38.53339 | 176.04991 | 31408 ft | 545 kts | 145° |
| 2026-05-08 19:28 | -38.56463 | 176.07726 | 31782 ft | 544 kts | 145° |
| 2026-05-08 19:29 | -38.59581 | 176.10459 | 32051 ft | 545 kts | 145° |
| 2026-05-08 19:29 | -38.62678 | 176.13178 | 32340 ft | 545 kts | 145° |
| 2026-05-08 19:29 | -38.65801 | 176.15923 | 32651 ft | 545 kts | 145° |
| 2026-05-08 19:30 | -38.72071 | 176.21443 | 32721 ft | 546 kts | 144° |
| 2026-05-08 19:30 | -38.78318 | 176.26950 | 32715 ft | 544 kts | 144° |
| 2026-05-08 19:31 | -38.84556 | 176.32467 | 32712 ft | 545 kts | 144° |
| 2026-05-08 19:31 | -38.90796 | 176.37997 | 32711 ft | 545 kts | 144° |
| 2026-05-08 19:32 | -38.97007 | 176.43512 | 32714 ft | 546 kts | 144° |
| 2026-05-08 19:32 | -39.03253 | 176.49069 | 32715 ft | 546 kts | 144° |
| 2026-05-08 19:33 | -39.09500 | 176.54642 | 32705 ft | 546 kts | 143° |
| 2026-05-08 19:33 | -39.15739 | 176.60215 | 32703 ft | 545 kts | 143° |
| 2026-05-08 19:34 | -39.21964 | 176.65792 | 32703 ft | 545 kts | 143° |
| 2026-05-08 19:34 | -39.28200 | 176.71393 | 32695 ft | 546 kts | 143° |
| 2026-05-08 19:35 | -39.34444 | 176.77009 | 32688 ft | 546 kts | 143° |
| 2026-05-08 19:35 | -39.40687 | 176.82640 | 32696 ft | 546 kts | 143° |
| 2026-05-08 19:36 | -39.46799 | 176.88388 | 32699 ft | 545 kts | 137° |
| 2026-05-08 19:36 | -39.52449 | 176.94920 | 32697 ft | 543 kts | 134° |
| 2026-05-08 19:37 | -39.58021 | 177.01565 | 32690 ft | 543 kts | 134° |
| 2026-05-08 19:37 | -39.63595 | 177.08174 | 32690 ft | 543 kts | 135° |
| 2026-05-08 19:38 | -39.69151 | 177.14713 | 32684 ft | 542 kts | 135° |
| 2026-05-08 19:38 | -39.74743 | 177.21287 | 32682 ft | 541 kts | 135° |
| 2026-05-08 19:39 | -39.80325 | 177.27868 | 32683 ft | 542 kts | 135° |
| 2026-05-08 19:39 | -39.85901 | 177.34461 | 32684 ft | 542 kts | 135° |
| 2026-05-08 19:40 | -39.91472 | 177.41067 | 32680 ft | 541 kts | 135° |
| 2026-05-08 19:40 | -39.97027 | 177.47670 | 32685 ft | 540 kts | 135° |
| 2026-05-08 19:41 | -40.02573 | 177.54278 | 32684 ft | 541 kts | 134° |
| 2026-05-08 19:41 | -40.08143 | 177.60928 | 32691 ft | 541 kts | 134° |
| 2026-05-08 19:42 | -40.13646 | 177.67513 | 32693 ft | 541 kts | 134° |
| 2026-05-08 19:42 | -40.19187 | 177.74156 | 32695 ft | 539 kts | 134° |
| 2026-05-08 19:43 | -40.24717 | 177.80803 | 32687 ft | 540 kts | 134° |
| 2026-05-08 19:43 | -40.30247 | 177.87468 | 32618 ft | 540 kts | 134° |
| 2026-05-08 19:44 | -40.35758 | 177.94124 | 32603 ft | 539 kts | 134° |
| 2026-05-08 19:44 | -40.41300 | 178.00834 | 32591 ft | 541 kts | 134° |
| 2026-05-08 19:45 | -40.46839 | 178.07557 | 32591 ft | 541 kts | 134° |
| 2026-05-08 19:45 | -40.52308 | 178.14207 | 32590 ft | 539 kts | 134° |
| 2026-05-08 19:46 | -40.57828 | 178.20936 | 32591 ft | 540 kts | 134° |
| 2026-05-08 19:46 | -40.66080 | 178.31028 | 32590 ft | 541 kts | 134° |
| 2026-05-08 19:47 | -40.71610 | 178.37809 | 32588 ft | 542 kts | 134° |
| 2026-05-08 19:47 | -40.77099 | 178.44558 | 32586 ft | 542 kts | 134° |
| 2026-05-08 19:48 | -40.82610 | 178.51349 | 32579 ft | 542 kts | 134° |
| 2026-05-08 19:48 | -40.88117 | 178.58152 | 32583 ft | 542 kts | 134° |
| 2026-05-08 19:49 | -40.93612 | 178.64954 | 32582 ft | 542 kts | 134° |
| 2026-05-08 19:49 | -40.99135 | 178.71808 | 32581 ft | 542 kts | 134° |
| 2026-05-08 19:50 | -41.04637 | 178.78648 | 32582 ft | 542 kts | 134° |
| 2026-05-08 19:50 | -41.10098 | 178.85462 | 32582 ft | 543 kts | 134° |
| 2026-05-08 19:51 | -41.15617 | 178.92362 | 32582 ft | 544 kts | 134° |
| 2026-05-08 19:51 | -41.21105 | 178.99239 | 32580 ft | 543 kts | 134° |
| 2026-05-08 19:52 | -41.26604 | 179.06148 | 32582 ft | 544 kts | 134° |
| 2026-05-08 19:52 | -41.32110 | 179.13079 | 32575 ft | 544 kts | 134° |
| 2026-05-08 19:53 | -41.37579 | 179.19983 | 32570 ft | 544 kts | 134° |
| 2026-05-08 19:53 | -41.43074 | 179.26935 | 32576 ft | 543 kts | 133° |
| 2026-05-08 19:54 | -41.48537 | 179.33865 | 32586 ft | 543 kts | 133° |
| 2026-05-08 19:54 | -41.54026 | 179.40848 | 32591 ft | 544 kts | 133° |
| 2026-05-08 19:55 | -41.59497 | 179.47821 | 32589 ft | 545 kts | 133° |
| 2026-05-08 19:55 | -41.64976 | 179.54821 | 32580 ft | 545 kts | 133° |
| 2026-05-08 19:56 | -41.70428 | 179.61809 | 32581 ft | 545 kts | 133° |
| 2026-05-08 19:56 | -41.75933 | 179.68875 | 32582 ft | 545 kts | 133° |
| 2026-05-08 19:57 | -41.81387 | 179.75896 | 32580 ft | 546 kts | 133° |
| 2026-05-08 19:57 | -41.86837 | 179.82934 | 32581 ft | 546 kts | 133° |
| 2026-05-08 19:58 | -41.92308 | 179.90014 | 32571 ft | 546 kts | 133° |
| 2026-05-08 19:58 | -41.98026 | 179.96712 | 32575 ft | 549 kts | 148° |
| 2026-05-08 19:59 | -42.01457 | 179.98894 | 32590 ft | 551 kts | 162° |
| 2026-05-08 19:59 | -42.05179 | -179.99855 | 32570 ft | 549 kts | 175° |
| 2026-05-08 19:59 | -42.12730 | -179.99775 | 32606 ft | 544 kts | 185° |
| 2026-05-08 20:00 | -42.20298 | -179.99958 | 32698 ft | 544 kts | 184° |
| 2026-05-08 20:00 | -42.27874 | 179.99986 | 32786 ft | 544 kts | 183° |
| 2026-05-08 20:01 | -42.35439 | 179.99995 | 32840 ft | 545 kts | 183° |
| 2026-05-08 20:01 | -42.41767 | -179.99999 | 32765 ft | 546 kts | 183° |
| 2026-05-08 20:02 | -42.50587 | -179.99990 | 32693 ft | 544 kts | 183° |
| 2026-05-08 20:02 | -42.58151 | -179.99992 | 32783 ft | 543 kts | 183° |
| 2026-05-08 20:03 | -42.64481 | -179.99996 | 32853 ft | 544 kts | 183° |
| 2026-05-08 20:03 | -42.72024 | -179.99997 | 32934 ft | 544 kts | 183° |
| 2026-05-08 20:04 | -42.79625 | -179.99997 | 33002 ft | 544 kts | 183° |
| 2026-05-08 20:04 | -42.87175 | -179.99997 | 32998 ft | 544 kts | 183° |
| 2026-05-08 20:05 | -42.94751 | -179.99999 | 33001 ft | 545 kts | 183° |
| 2026-05-08 20:05 | -43.02350 | 179.99999 | 33000 ft | 545 kts | 183° |
| 2026-05-08 20:06 | -43.09952 | 179.99997 | 32945 ft | 551 kts | 183° |
| 2026-05-08 20:06 | -43.17633 | 179.99997 | 32847 ft | 551 kts | 183° |
| 2026-05-08 20:07 | -43.25293 | 179.99999 | 32762 ft | 551 kts | 182° |
| 2026-05-08 20:07 | -43.32933 | -180.00000 | 32682 ft | 550 kts | 183° |
| 2026-05-08 20:08 | -43.40625 | -179.99999 | 32641 ft | 547 kts | 182° |
| 2026-05-08 20:08 | -43.48233 | 180.00000 | 32736 ft | 550 kts | 183° |
| 2026-05-08 20:09 | -43.55901 | 179.99998 | 32762 ft | 554 kts | 182° |
| 2026-05-08 20:09 | -43.63650 | 179.99999 | 32667 ft | 554 kts | 182° |
| 2026-05-08 20:10 | -43.71307 | -179.99998 | 32583 ft | 552 kts | 182° |
| 2026-05-08 20:10 | -43.79014 | -179.99999 | 32583 ft | 551 kts | 182° |
| 2026-05-08 20:11 | -43.86682 | 179.99999 | 32674 ft | 553 kts | 182° |
| 2026-05-08 20:11 | -43.94407 | 180.00000 | 32661 ft | 554 kts | 182° |
| 2026-05-08 20:12 | -44.02079 | 180.00000 | 32566 ft | 553 kts | 182° |
| 2026-05-08 20:12 | -44.09791 | 180.00000 | 32508 ft | 553 kts | 182° |
| 2026-05-08 20:13 | -44.17484 | -179.99999 | 32529 ft | 553 kts | 182° |
| 2026-05-08 20:13 | -44.25166 | -180.00000 | 32626 ft | 553 kts | 182° |
| 2026-05-08 20:14 | -44.32838 | -179.99999 | 32707 ft | 553 kts | 182° |
| 2026-05-08 20:14 | -44.40568 | -179.99998 | 32799 ft | 553 kts | 182° |
| 2026-05-08 20:15 | -44.48238 | 180.00000 | 32879 ft | 552 kts | 182° |
| 2026-05-08 20:15 | -44.55945 | 179.99999 | 32963 ft | 555 kts | 182° |
| 2026-05-08 20:16 | -44.63673 | 179.99999 | 32903 ft | 556 kts | 182° |
| 2026-05-08 20:16 | -44.71388 | 180.00000 | 32809 ft | 555 kts | 182° |
| 2026-05-08 20:17 | -44.79071 | -179.99999 | 32719 ft | 553 kts | 183° |
| 2026-05-08 20:17 | -44.86745 | 180.00000 | 32748 ft | 551 kts | 183° |
| 2026-05-08 20:18 | -44.94445 | -179.99934 | 32803 ft | 557 kts | 178° |
| 2026-05-08 20:18 | -45.02038 | -179.97687 | 32785 ft | 558 kts | 160° |
| 2026-05-08 20:19 | -45.08934 | -179.92793 | 32887 ft | 554 kts | 146° |
| 2026-05-08 20:19 | -45.15491 | -179.87044 | 32949 ft | 556 kts | 146° |
| 2026-05-08 20:20 | -45.22065 | -179.81293 | 33022 ft | 556 kts | 146° |
| 2026-05-08 20:20 | -45.28714 | -179.75575 | 33028 ft | 557 kts | 147° |
| 2026-05-08 20:21 | -45.35336 | -179.69916 | 33030 ft | 557 kts | 147° |
| 2026-05-08 20:21 | -45.41998 | -179.64214 | 33029 ft | 557 kts | 147° |
| 2026-05-08 20:22 | -45.48589 | -179.58546 | 33023 ft | 557 kts | 146° |
| 2026-05-08 20:22 | -45.55244 | -179.52798 | 33029 ft | 558 kts | 146° |
| 2026-05-08 20:23 | -45.61857 | -179.47072 | 33030 ft | 558 kts | 146° |
| 2026-05-08 20:23 | -45.68523 | -179.41287 | 33027 ft | 557 kts | 146° |
| 2026-05-08 20:24 | -45.75082 | -179.35579 | 33028 ft | 557 kts | 146° |
| 2026-05-08 20:24 | -45.81715 | -179.29786 | 33029 ft | 557 kts | 146° |
| 2026-05-08 20:25 | -45.88296 | -179.24025 | 33025 ft | 556 kts | 146° |
| 2026-05-08 20:25 | -45.94914 | -179.18215 | 33031 ft | 555 kts | 146° |
| 2026-05-08 20:26 | -46.01503 | -179.12413 | 33029 ft | 555 kts | 147° |
| 2026-05-08 20:26 | -46.08074 | -179.06614 | 33032 ft | 557 kts | 147° |
| 2026-05-08 20:27 | -46.14720 | -179.00726 | 33026 ft | 557 kts | 147° |
| 2026-05-08 20:27 | -46.21268 | -178.94913 | 33028 ft | 556 kts | 147° |
| 2026-05-08 20:28 | -46.27876 | -178.89030 | 33029 ft | 555 kts | 147° |
| 2026-05-08 20:28 | -46.34430 | -178.83175 | 33027 ft | 555 kts | 147° |
| 2026-05-08 20:29 | -46.40983 | -178.77310 | 33027 ft | 555 kts | 147° |
| 2026-05-08 20:29 | -46.47591 | -178.71375 | 33031 ft | 554 kts | 147° |
| 2026-05-08 20:30 | -46.54084 | -178.65525 | 33028 ft | 554 kts | 147° |
| 2026-05-08 20:30 | -46.60680 | -178.59568 | 33030 ft | 554 kts | 147° |
| 2026-05-08 20:31 | -46.67213 | -178.53648 | 33030 ft | 554 kts | 147° |
| 2026-05-08 20:31 | -46.73749 | -178.47709 | 33027 ft | 554 kts | 147° |
| 2026-05-08 20:32 | -46.80284 | -178.41756 | 33030 ft | 554 kts | 147° |
| 2026-05-08 20:32 | -46.86817 | -178.35787 | 33030 ft | 555 kts | 147° |
| 2026-05-08 20:33 | -46.93378 | -178.29774 | 33030 ft | 555 kts | 147° |
| 2026-05-08 20:33 | -46.99874 | -178.23802 | 33022 ft | 555 kts | 147° |
| 2026-05-08 20:34 | -47.06461 | -178.17729 | 33027 ft | 556 kts | 147° |
| 2026-05-08 20:35 | -47.16283 | -178.08641 | 33028 ft | 557 kts | 147° |
| 2026-05-08 20:35 | -47.22800 | -178.02591 | 33024 ft | 556 kts | 147° |
| 2026-05-08 20:36 | -47.29370 | -177.96469 | 33034 ft | 556 kts | 147° |
| 2026-05-08 20:36 | -47.35838 | -177.90425 | 33023 ft | 553 kts | 147° |
| 2026-05-08 20:37 | -47.42357 | -177.84317 | 33030 ft | 554 kts | 147° |
| 2026-05-08 20:37 | -47.48866 | -177.78201 | 33027 ft | 555 kts | 147° |
| 2026-05-08 20:38 | -47.55401 | -177.72042 | 33027 ft | 555 kts | 147° |
| 2026-05-08 20:38 | -47.61910 | -177.65888 | 33032 ft | 556 kts | 147° |
| 2026-05-08 20:39 | -47.68426 | -177.59710 | 33025 ft | 556 kts | 147° |
| 2026-05-08 20:39 | -47.74945 | -177.53511 | 33029 ft | 556 kts | 147° |
| 2026-05-08 20:40 | -47.81431 | -177.47323 | 33029 ft | 555 kts | 147° |
| 2026-05-08 20:40 | -47.87940 | -177.41095 | 33024 ft | 555 kts | 147° |
| 2026-05-08 20:41 | -47.94436 | -177.34859 | 33032 ft | 554 kts | 147° |
| 2026-05-08 20:41 | -48.00865 | -177.28676 | 33037 ft | 553 kts | 147° |
| 2026-05-08 20:42 | -48.07374 | -177.22386 | 33050 ft | 555 kts | 147° |
| 2026-05-08 20:42 | -48.13841 | -177.16120 | 33048 ft | 554 kts | 147° |
| 2026-05-08 20:43 | -48.20293 | -177.09854 | 33048 ft | 553 kts | 147° |
| 2026-05-08 20:43 | -48.26729 | -177.03581 | 33044 ft | 552 kts | 147° |
| 2026-05-08 20:44 | -48.33171 | -176.97285 | 33047 ft | 551 kts | 147° |
| 2026-05-08 20:44 | -48.39586 | -176.90998 | 33049 ft | 551 kts | 147° |
| 2026-05-08 20:45 | -48.45978 | -176.84712 | 33046 ft | 550 kts | 147° |
| 2026-05-08 20:45 | -48.52381 | -176.78394 | 33040 ft | 549 kts | 147° |
| 2026-05-08 20:46 | -48.58753 | -176.72089 | 33045 ft | 549 kts | 147° |
| 2026-05-08 20:46 | -48.65142 | -176.65749 | 33048 ft | 549 kts | 147° |
| 2026-05-08 20:47 | -48.71534 | -176.59386 | 33046 ft | 548 kts | 147° |
| 2026-05-08 20:47 | -48.77891 | -176.53039 | 33048 ft | 548 kts | 147° |
| 2026-05-08 20:48 | -48.84241 | -176.46676 | 33048 ft | 548 kts | 147° |
| 2026-05-08 20:48 | -48.90625 | -176.40262 | 33046 ft | 548 kts | 147° |
| 2026-05-08 20:49 | -48.96968 | -176.33866 | 33048 ft | 548 kts | 147° |
| 2026-05-08 20:49 | -49.02259 | -176.28517 | 33048 ft | 549 kts | 147° |
| 2026-05-08 20:50 | -49.09692 | -176.20982 | 33041 ft | 549 kts | 147° |
| 2026-05-08 20:50 | -49.14992 | -176.15592 | 33048 ft | 549 kts | 147° |
| 2026-05-08 20:51 | -49.21317 | -176.09139 | 33043 ft | 549 kts | 147° |
| 2026-05-08 20:51 | -49.27680 | -176.02628 | 33047 ft | 550 kts | 147° |
| 2026-05-08 20:52 | -49.34024 | -175.96119 | 33052 ft | 548 kts | 147° |
| 2026-05-08 20:52 | -49.40349 | -175.89606 | 33040 ft | 547 kts | 147° |
| 2026-05-08 20:53 | -49.46641 | -175.83106 | 33051 ft | 547 kts | 147° |
| 2026-05-08 20:53 | -49.52971 | -175.76547 | 33056 ft | 548 kts | 147° |
| 2026-05-08 20:54 | -49.59290 | -175.69978 | 33057 ft | 548 kts | 147° |
| 2026-05-08 20:54 | -49.65615 | -175.63381 | 33055 ft | 548 kts | 147° |
| 2026-05-08 20:55 | -49.71924 | -175.56781 | 33056 ft | 548 kts | 147° |
| 2026-05-08 20:55 | -49.78223 | -175.50169 | 33052 ft | 548 kts | 147° |
| 2026-05-08 20:56 | -49.84542 | -175.43519 | 33056 ft | 547 kts | 147° |
| 2026-05-08 20:56 | -49.90831 | -175.36874 | 33055 ft | 547 kts | 147° |
| 2026-05-08 20:57 | -49.97089 | -175.30241 | 33055 ft | 547 kts | 147° |
| 2026-05-08 20:57 | -50.03394 | -175.23535 | 33055 ft | 546 kts | 147° |
| 2026-05-08 20:58 | -50.09641 | -175.16869 | 33056 ft | 548 kts | 147° |
| 2026-05-08 20:58 | -50.15953 | -175.10119 | 33055 ft | 547 kts | 147° |
| 2026-05-08 20:59 | -50.22180 | -175.03437 | 33034 ft | 546 kts | 147° |
| 2026-05-08 20:59 | -50.28425 | -174.96711 | 33050 ft | 546 kts | 147° |
| 2026-05-08 21:00 | -50.34709 | -174.89923 | 33042 ft | 545 kts | 147° |
| 2026-05-08 21:00 | -50.40916 | -174.83193 | 33042 ft | 545 kts | 147° |
| 2026-05-08 21:01 | -50.47132 | -174.76433 | 33045 ft | 545 kts | 147° |
| 2026-05-08 21:01 | -50.53365 | -174.69632 | 33041 ft | 545 kts | 147° |
| 2026-05-08 21:02 | -50.59607 | -174.62798 | 33050 ft | 550 kts | 146° |
| 2026-05-08 21:02 | -50.65907 | -174.55882 | 33047 ft | 550 kts | 146° |
| 2026-05-08 21:03 | -50.72162 | -174.48986 | 33039 ft | 549 kts | 146° |
| 2026-05-08 21:03 | -50.78398 | -174.42094 | 33028 ft | 549 kts | 146° |
| 2026-05-08 21:04 | -50.84699 | -174.35104 | 33027 ft | 550 kts | 146° |
| 2026-05-08 21:04 | -50.90930 | -174.28170 | 33026 ft | 550 kts | 146° |
| 2026-05-08 21:05 | -50.97492 | -174.20841 | 33022 ft | 551 kts | 146° |
| 2026-05-08 21:05 | -51.03753 | -174.13828 | 33019 ft | 550 kts | 146° |
| 2026-05-08 21:06 | -51.09978 | -174.06822 | 33018 ft | 550 kts | 146° |
| 2026-05-08 21:06 | -51.16227 | -173.99768 | 33017 ft | 550 kts | 146° |
| 2026-05-08 21:07 | -51.22483 | -173.92690 | 33022 ft | 549 kts | 146° |
| 2026-05-08 21:07 | -51.28662 | -173.85668 | 33018 ft | 548 kts | 146° |
| 2026-05-08 21:08 | -51.34884 | -173.78579 | 33020 ft | 549 kts | 146° |
| 2026-05-08 21:08 | -51.41102 | -173.71470 | 33021 ft | 550 kts | 146° |
| 2026-05-08 21:09 | -51.47317 | -173.64338 | 33016 ft | 550 kts | 146° |
| 2026-05-08 21:09 | -51.53566 | -173.57141 | 33019 ft | 550 kts | 146° |
| 2026-05-08 21:10 | -51.59779 | -173.49960 | 33020 ft | 551 kts | 146° |
| 2026-05-08 21:10 | -51.65990 | -173.42758 | 33019 ft | 551 kts | 146° |
| 2026-05-08 21:11 | -51.72221 | -173.35510 | 33008 ft | 557 kts | 146° |
| 2026-05-08 21:11 | -51.78537 | -173.28136 | 33028 ft | 561 kts | 145° |
| 2026-05-08 21:12 | -51.84831 | -173.20762 | 33025 ft | 561 kts | 145° |
| 2026-05-08 21:12 | -51.91129 | -173.13355 | 33017 ft | 558 kts | 145° |
| 2026-05-08 21:13 | -51.97396 | -173.05958 | 33018 ft | 558 kts | 145° |
| 2026-05-08 21:13 | -52.03677 | -172.98519 | 33017 ft | 559 kts | 146° |
| 2026-05-08 21:14 | -52.09940 | -172.91077 | 33022 ft | 560 kts | 146° |
| 2026-05-08 21:14 | -52.16240 | -172.83564 | 33018 ft | 558 kts | 146° |
| 2026-05-08 21:15 | -52.22505 | -172.76064 | 33016 ft | 557 kts | 146° |
| 2026-05-08 21:15 | -52.28702 | -172.68620 | 33022 ft | 556 kts | 146° |
| 2026-05-08 21:16 | -52.34919 | -172.61124 | 33017 ft | 556 kts | 146° |
| 2026-05-08 21:16 | -52.41092 | -172.53655 | 33018 ft | 555 kts | 145° |
| 2026-05-08 21:17 | -52.47305 | -172.46111 | 33018 ft | 555 kts | 145° |
| 2026-05-08 21:18 | -52.59365 | -172.31394 | 33018 ft | 555 kts | 145° |
| 2026-05-08 21:18 | -52.65560 | -172.23790 | 33019 ft | 555 kts | 145° |
| 2026-05-08 21:19 | -52.71766 | -172.16147 | 33017 ft | 555 kts | 145° |
| 2026-05-08 21:19 | -52.77924 | -172.08537 | 33022 ft | 555 kts | 145° |
| 2026-05-08 21:20 | -52.84068 | -172.00916 | 33018 ft | 556 kts | 145° |
| 2026-05-08 21:20 | -52.90246 | -171.93224 | 33023 ft | 554 kts | 145° |
| 2026-05-08 21:21 | -52.96413 | -171.85514 | 33014 ft | 552 kts | 145° |
| 2026-05-08 21:21 | -53.02539 | -171.77830 | 33017 ft | 553 kts | 145° |
| 2026-05-08 21:22 | -53.08682 | -171.70100 | 33037 ft | 554 kts | 145° |
| 2026-05-08 21:22 | -53.14804 | -171.62368 | 33040 ft | 554 kts | 145° |
| 2026-05-08 21:23 | -53.20920 | -171.54609 | 33035 ft | 554 kts | 145° |
| 2026-05-08 21:23 | -53.27023 | -171.46840 | 33037 ft | 554 kts | 145° |
| 2026-05-08 21:24 | -53.33194 | -171.38958 | 33033 ft | 555 kts | 145° |
| 2026-05-08 21:24 | -53.39286 | -171.31147 | 33034 ft | 554 kts | 145° |
| 2026-05-08 21:25 | -53.45416 | -171.23257 | 33037 ft | 554 kts | 144° |
| 2026-05-08 21:25 | -53.51542 | -171.15346 | 33035 ft | 554 kts | 144° |
| 2026-05-08 21:26 | -53.57604 | -171.07485 | 33038 ft | 554 kts | 144° |
| 2026-05-08 21:26 | -53.63730 | -170.99512 | 33040 ft | 554 kts | 144° |
| 2026-05-08 21:27 | -53.69817 | -170.91563 | 33036 ft | 554 kts | 144° |
| 2026-05-08 21:27 | -53.75869 | -170.83627 | 33035 ft | 554 kts | 144° |
| 2026-05-08 21:28 | -53.81980 | -170.75582 | 33039 ft | 553 kts | 144° |
| 2026-05-08 21:28 | -53.88029 | -170.67589 | 33037 ft | 552 kts | 144° |
| 2026-05-08 21:29 | -53.94082 | -170.59562 | 33038 ft | 552 kts | 144° |
| 2026-05-08 21:29 | -54.00099 | -170.51556 | 33040 ft | 553 kts | 144° |
| 2026-05-08 21:30 | -54.06187 | -170.43421 | 33040 ft | 554 kts | 144° |
| 2026-05-08 21:30 | -54.12204 | -170.35346 | 33036 ft | 555 kts | 144° |
| 2026-05-08 21:31 | -54.18291 | -170.27148 | 33036 ft | 553 kts | 144° |
| 2026-05-08 21:31 | -54.24302 | -170.19024 | 33041 ft | 553 kts | 144° |
| 2026-05-08 21:32 | -54.30343 | -170.10825 | 33035 ft | 554 kts | 144° |
| 2026-05-08 21:32 | -54.36335 | -170.02664 | 33038 ft | 554 kts | 144° |
| 2026-05-08 21:33 | -54.42372 | -169.94407 | 33037 ft | 553 kts | 144° |
| 2026-05-08 21:33 | -54.48381 | -169.86159 | 33040 ft | 553 kts | 144° |
| 2026-05-08 21:34 | -54.54361 | -169.77919 | 33041 ft | 552 kts | 144° |
| 2026-05-08 21:34 | -54.60401 | -169.69567 | 33133 ft | 557 kts | 144° |
| 2026-05-08 21:34 | -54.63404 | -169.65401 | 33422 ft | 557 kts | 144° |
| 2026-05-08 21:35 | -54.66384 | -169.61257 | 33792 ft | 554 kts | 144° |
| 2026-05-08 21:35 | -54.69393 | -169.57060 | 34189 ft | 552 kts | 144° |
| 2026-05-08 21:35 | -54.72358 | -169.52921 | 34565 ft | 549 kts | 144° |
| 2026-05-08 21:35 | -54.75327 | -169.48769 | 34857 ft | 549 kts | 144° |
| 2026-05-08 21:36 | -54.78339 | -169.44553 | 34980 ft | 550 kts | 144° |
| 2026-05-08 21:36 | -54.84277 | -169.36213 | 35033 ft | 550 kts | 144° |
| 2026-05-08 21:37 | -54.90184 | -169.27876 | 35033 ft | 549 kts | 144° |
| 2026-05-08 21:37 | -54.96109 | -169.19484 | 35040 ft | 549 kts | 144° |
| 2026-05-08 21:38 | -55.02017 | -169.11087 | 35038 ft | 549 kts | 144° |
| 2026-05-08 21:38 | -55.07913 | -169.02670 | 35038 ft | 548 kts | 144° |
| 2026-05-08 21:39 | -55.13811 | -168.94219 | 35036 ft | 548 kts | 144° |
| 2026-05-08 21:39 | -55.19678 | -168.85781 | 35039 ft | 548 kts | 144° |
| 2026-05-08 21:40 | -55.25550 | -168.77301 | 35037 ft | 548 kts | 144° |
| 2026-05-08 21:40 | -55.31429 | -168.68767 | 35039 ft | 548 kts | 144° |
| 2026-05-08 21:41 | -55.39242 | -168.57387 | 35036 ft | 548 kts | 144° |
| 2026-05-08 21:41 | -55.46096 | -168.47354 | 35038 ft | 548 kts | 144° |
| 2026-05-08 21:42 | -55.50967 | -168.40196 | 35036 ft | 548 kts | 144° |
| 2026-05-08 21:42 | -55.56813 | -168.31569 | 35037 ft | 548 kts | 144° |
| 2026-05-08 21:43 | -55.62664 | -168.22903 | 35035 ft | 548 kts | 144° |
| 2026-05-08 21:43 | -55.68517 | -168.14195 | 35039 ft | 548 kts | 144° |
| 2026-05-08 21:44 | -55.74330 | -168.05518 | 35037 ft | 548 kts | 144° |
| 2026-05-08 21:44 | -55.80152 | -167.96787 | 35038 ft | 548 kts | 144° |
| 2026-05-08 21:45 | -55.85981 | -167.88014 | 35038 ft | 548 kts | 144° |
| 2026-05-08 21:45 | -55.91807 | -167.79202 | 35037 ft | 548 kts | 144° |
| 2026-05-08 21:46 | -55.97583 | -167.70436 | 35053 ft | 548 kts | 144° |
| 2026-05-08 21:46 | -56.03407 | -167.61560 | 35054 ft | 548 kts | 144° |
| 2026-05-08 21:47 | -56.09175 | -167.52739 | 35059 ft | 550 kts | 144° |
| 2026-05-08 21:47 | -56.14981 | -167.43818 | 35054 ft | 550 kts | 144° |
| 2026-05-08 21:48 | -56.20800 | -167.34834 | 35056 ft | 549 kts | 144° |
| 2026-05-08 21:48 | -56.26596 | -167.25855 | 35056 ft | 549 kts | 144° |
| 2026-05-08 21:49 | -56.32380 | -167.16859 | 35054 ft | 550 kts | 144° |
| 2026-05-08 21:49 | -56.38125 | -167.07885 | 35059 ft | 551 kts | 144° |
| 2026-05-08 21:50 | -56.43938 | -166.98767 | 35057 ft | 551 kts | 144° |
| 2026-05-08 21:50 | -56.49690 | -166.89703 | 35052 ft | 550 kts | 144° |
| 2026-05-08 21:51 | -56.55481 | -166.80537 | 35057 ft | 550 kts | 144° |
| 2026-05-08 21:51 | -56.61210 | -166.71434 | 35053 ft | 550 kts | 144° |
| 2026-05-08 21:52 | -56.66964 | -166.62258 | 35057 ft | 550 kts | 144° |
| 2026-05-08 21:52 | -56.72697 | -166.53073 | 35056 ft | 550 kts | 144° |
| 2026-05-08 21:53 | -56.78419 | -166.43868 | 35055 ft | 550 kts | 144° |
| 2026-05-08 21:53 | -56.84163 | -166.34588 | 35054 ft | 550 kts | 144° |
| 2026-05-08 21:54 | -56.89899 | -166.25283 | 35057 ft | 551 kts | 144° |
| 2026-05-08 21:54 | -56.95635 | -166.15937 | 35057 ft | 552 kts | 144° |
| 2026-05-08 21:55 | -57.01379 | -166.06535 | 35056 ft | 553 kts | 144° |
| 2026-05-08 21:56 | -57.09951 | -165.92426 | 35057 ft | 553 kts | 144° |
| 2026-05-08 21:56 | -57.15648 | -165.83000 | 35054 ft | 553 kts | 144° |
| 2026-05-08 21:57 | -57.21370 | -165.73493 | 35055 ft | 554 kts | 144° |
| 2026-05-08 21:57 | -57.27118 | -165.63900 | 35056 ft | 555 kts | 144° |
| 2026-05-08 21:58 | -57.32813 | -165.54356 | 35054 ft | 555 kts | 144° |
| 2026-05-08 21:58 | -57.38532 | -165.44731 | 35057 ft | 555 kts | 144° |
| 2026-05-08 21:59 | -57.44225 | -165.35101 | 35053 ft | 555 kts | 144° |
| 2026-05-08 21:59 | -57.49916 | -165.25433 | 35054 ft | 555 kts | 144° |
| 2026-05-08 22:00 | -57.55611 | -165.15720 | 35058 ft | 555 kts | 144° |
| 2026-05-08 22:00 | -57.61324 | -165.05929 | 35054 ft | 555 kts | 144° |
| 2026-05-08 22:01 | -57.66972 | -164.96209 | 35054 ft | 554 kts | 144° |
| 2026-05-08 22:01 | -57.72606 | -164.86467 | 35058 ft | 554 kts | 144° |
| 2026-05-08 22:02 | -57.78261 | -164.76648 | 35055 ft | 553 kts | 144° |
| 2026-05-08 22:02 | -57.83910 | -164.66794 | 35055 ft | 553 kts | 144° |
| 2026-05-08 22:03 | -57.89514 | -164.56975 | 35054 ft | 553 kts | 144° |
| 2026-05-08 22:03 | -57.95146 | -164.47064 | 35053 ft | 554 kts | 145° |
| 2026-05-08 22:04 | -58.00756 | -164.37144 | 35054 ft | 554 kts | 144° |
| 2026-05-08 22:04 | -58.06370 | -164.27174 | 35057 ft | 556 kts | 145° |
| 2026-05-08 22:05 | -58.11995 | -164.17136 | 35057 ft | 555 kts | 145° |
| 2026-05-08 22:05 | -58.17612 | -164.07067 | 35055 ft | 554 kts | 144° |
| 2026-05-08 22:06 | -58.23193 | -163.97020 | 35055 ft | 555 kts | 144° |
| 2026-05-08 22:06 | -58.28779 | -163.86920 | 35054 ft | 555 kts | 144° |
| 2026-05-08 22:07 | -58.34362 | -163.76773 | 35057 ft | 556 kts | 144° |
| 2026-05-08 22:07 | -58.39919 | -163.66629 | 35055 ft | 556 kts | 144° |
| 2026-05-08 22:08 | -58.45521 | -163.56356 | 35055 ft | 557 kts | 144° |
| 2026-05-08 22:08 | -58.51107 | -163.46064 | 35058 ft | 557 kts | 144° |
| 2026-05-08 22:09 | -58.56690 | -163.35732 | 35054 ft | 557 kts | 144° |
| 2026-05-08 22:09 | -58.62241 | -163.25409 | 35056 ft | 558 kts | 144° |
| 2026-05-08 22:10 | -58.67810 | -163.15005 | 35055 ft | 559 kts | 144° |
| 2026-05-08 22:10 | -58.73349 | -163.04602 | 35058 ft | 558 kts | 144° |
| 2026-05-08 22:11 | -58.78883 | -162.94162 | 35053 ft | 557 kts | 144° |
| 2026-05-08 22:11 | -58.84392 | -162.83721 | 35058 ft | 557 kts | 144° |
| 2026-05-08 22:12 | -58.89943 | -162.73159 | 35057 ft | 558 kts | 144° |
| 2026-05-08 22:12 | -58.95468 | -162.62592 | 35055 ft | 557 kts | 144° |
| 2026-05-08 22:13 | -59.00967 | -162.52016 | 35054 ft | 557 kts | 144° |
| 2026-05-08 22:13 | -59.06468 | -162.41394 | 35057 ft | 558 kts | 144° |
| 2026-05-08 22:14 | -59.11952 | -162.30753 | 35056 ft | 559 kts | 144° |
| 2026-05-08 22:14 | -59.17452 | -162.20033 | 35056 ft | 560 kts | 144° |
| 2026-05-08 22:15 | -59.22948 | -162.09266 | 35056 ft | 561 kts | 144° |
| 2026-05-08 22:15 | -59.28461 | -161.98407 | 35054 ft | 562 kts | 144° |
| 2026-05-08 22:16 | -59.33954 | -161.87535 | 35057 ft | 561 kts | 144° |
| 2026-05-08 22:16 | -59.39448 | -161.76613 | 35055 ft | 562 kts | 144° |
| 2026-05-08 22:17 | -59.44926 | -161.65668 | 35057 ft | 563 kts | 144° |
| 2026-05-08 22:17 | -59.50401 | -161.54677 | 35056 ft | 563 kts | 144° |
| 2026-05-08 22:18 | -59.55902 | -161.43573 | 35055 ft | 563 kts | 144° |
| 2026-05-08 22:18 | -59.61338 | -161.32542 | 35052 ft | 561 kts | 144° |
| 2026-05-08 22:19 | -59.66786 | -161.21447 | 35057 ft | 561 kts | 143° |
| 2026-05-08 22:19 | -59.72223 | -161.10312 | 35056 ft | 561 kts | 143° |
| 2026-05-08 22:20 | -59.77588 | -160.99265 | 35057 ft | 560 kts | 143° |
| 2026-05-08 22:20 | -59.82999 | -160.88075 | 35053 ft | 560 kts | 143° |
| 2026-05-08 22:21 | -59.88376 | -160.76896 | 35062 ft | 559 kts | 143° |
| 2026-05-08 22:21 | -59.93754 | -160.65656 | 35055 ft | 560 kts | 143° |
| 2026-05-08 22:22 | -59.99111 | -160.54406 | 35055 ft | 559 kts | 144° |
| 2026-05-08 22:22 | -60.04448 | -160.43149 | 35053 ft | 560 kts | 144° |
| 2026-05-08 22:23 | -60.09715 | -160.31557 | 35058 ft | 569 kts | 137° |
| 2026-05-08 22:23 | -60.14394 | -160.18498 | 35064 ft | 576 kts | 133° |
| 2026-05-08 22:24 | -60.18882 | -160.05206 | 35054 ft | 575 kts | 132° |
| 2026-05-08 22:24 | -60.23387 | -159.91892 | 35053 ft | 574 kts | 133° |
| 2026-05-08 22:25 | -60.27909 | -159.78650 | 35060 ft | 574 kts | 133° |
| 2026-05-08 22:25 | -60.32439 | -159.65388 | 35059 ft | 574 kts | 133° |
| 2026-05-08 22:26 | -60.36966 | -159.52054 | 35070 ft | 575 kts | 133° |
| 2026-05-08 22:26 | -60.41456 | -159.38730 | 35063 ft | 575 kts | 133° |
| 2026-05-08 22:27 | -60.45951 | -159.25297 | 35063 ft | 574 kts | 133° |
| 2026-05-08 22:27 | -60.50410 | -159.11897 | 35062 ft | 574 kts | 133° |
| 2026-05-08 22:28 | -60.54833 | -158.98542 | 35066 ft | 573 kts | 133° |
| 2026-05-08 22:28 | -60.58522 | -158.87342 | 35071 ft | 572 kts | 134° |
| 2026-05-08 22:29 | -60.62967 | -158.73772 | 35062 ft | 572 kts | 134° |
| 2026-05-08 22:29 | -60.67361 | -158.60274 | 35063 ft | 571 kts | 134° |
| 2026-05-08 22:30 | -60.71732 | -158.46772 | 35065 ft | 572 kts | 133° |
| 2026-05-08 22:30 | -60.76111 | -158.33169 | 35062 ft | 571 kts | 133° |
| 2026-05-08 22:31 | -60.80447 | -158.19614 | 35059 ft | 570 kts | 133° |
| 2026-05-08 22:31 | -60.84789 | -158.05941 | 35064 ft | 570 kts | 133° |
| 2026-05-08 22:32 | -60.89123 | -157.92260 | 35075 ft | 570 kts | 134° |
| 2026-05-08 22:32 | -60.93407 | -157.78656 | 35061 ft | 568 kts | 134° |
| 2026-05-08 22:33 | -60.97662 | -157.65034 | 35068 ft | 567 kts | 134° |
| 2026-05-08 22:33 | -61.01926 | -157.51305 | 35062 ft | 567 kts | 133° |
| 2026-05-08 22:34 | -61.06172 | -157.37549 | 35068 ft | 567 kts | 133° |
| 2026-05-08 22:34 | -61.10367 | -157.23883 | 35058 ft | 566 kts | 133° |
| 2026-05-08 22:35 | -61.14571 | -157.10106 | 35050 ft | 566 kts | 133° |
| 2026-05-08 22:35 | -61.18752 | -156.96321 | 35043 ft | 565 kts | 133° |
| 2026-05-08 22:36 | -61.22946 | -156.82408 | 35050 ft | 564 kts | 133° |
| 2026-05-08 22:36 | -61.27081 | -156.68618 | 35043 ft | 563 kts | 133° |
| 2026-05-08 22:37 | -61.31201 | -156.54788 | 35050 ft | 562 kts | 133° |
| 2026-05-08 22:37 | -61.35298 | -156.40949 | 35043 ft | 562 kts | 133° |
| 2026-05-08 22:38 | -61.39398 | -156.27024 | 35048 ft | 563 kts | 133° |
| 2026-05-08 22:38 | -61.43469 | -156.13118 | 35050 ft | 563 kts | 133° |
| 2026-05-08 22:39 | -61.47521 | -155.99170 | 35043 ft | 562 kts | 133° |
| 2026-05-08 22:39 | -61.51567 | -155.85152 | 35048 ft | 560 kts | 133° |
| 2026-05-08 22:40 | -61.55570 | -155.71224 | 35045 ft | 560 kts | 133° |
| 2026-05-08 22:40 | -61.59574 | -155.57201 | 35047 ft | 560 kts | 133° |
| 2026-05-08 22:41 | -61.63563 | -155.43147 | 35047 ft | 560 kts | 133° |
| 2026-05-08 22:41 | -61.67542 | -155.29023 | 35043 ft | 559 kts | 133° |
| 2026-05-08 22:42 | -61.71492 | -155.14916 | 35044 ft | 558 kts | 133° |
| 2026-05-08 22:42 | -61.75411 | -155.00854 | 35052 ft | 558 kts | 133° |
| 2026-05-08 22:43 | -61.79319 | -154.86722 | 35042 ft | 557 kts | 133° |
| 2026-05-08 22:43 | -61.83227 | -154.72514 | 35048 ft | 556 kts | 132° |
| 2026-05-08 22:44 | -61.87087 | -154.58386 | 35045 ft | 555 kts | 132° |
| 2026-05-08 22:44 | -61.90933 | -154.44231 | 35037 ft | 555 kts | 132° |
| 2026-05-08 22:45 | -61.94775 | -154.29987 | 35036 ft | 554 kts | 132° |
| 2026-05-08 22:45 | -61.98591 | -154.15750 | 35035 ft | 554 kts | 132° |
| 2026-05-08 22:46 | -62.02393 | -154.01482 | 35041 ft | 554 kts | 132° |
| 2026-05-08 22:46 | -62.06175 | -153.87205 | 35037 ft | 555 kts | 132° |
| 2026-05-08 22:47 | -62.09965 | -153.72799 | 35038 ft | 555 kts | 131° |
| 2026-05-08 22:47 | -62.13705 | -153.58478 | 35035 ft | 554 kts | 131° |
| 2026-05-08 22:48 | -62.17437 | -153.44103 | 35038 ft | 554 kts | 131° |
| 2026-05-08 22:48 | -62.21192 | -153.29551 | 35035 ft | 554 kts | 131° |
| 2026-05-08 22:49 | -62.24887 | -153.15135 | 35042 ft | 552 kts | 130° |
| 2026-05-08 22:49 | -62.30377 | -152.93531 | 35036 ft | 550 kts | 130° |
| 2026-05-08 22:50 | -62.34025 | -152.79069 | 35043 ft | 550 kts | 130° |
| 2026-05-08 22:50 | -62.37671 | -152.64523 | 35035 ft | 549 kts | 130° |
| 2026-05-08 22:51 | -62.41283 | -152.50012 | 35038 ft | 550 kts | 130° |
| 2026-05-08 22:51 | -62.44875 | -152.35481 | 35038 ft | 549 kts | 130° |
| 2026-05-08 22:52 | -62.48441 | -152.20955 | 35035 ft | 549 kts | 130° |
| 2026-05-08 22:52 | -62.52021 | -152.06292 | 35039 ft | 550 kts | 130° |
| 2026-05-08 22:53 | -62.55575 | -151.91628 | 35040 ft | 550 kts | 130° |
| 2026-05-08 22:53 | -62.59090 | -151.77002 | 35034 ft | 547 kts | 129° |
| 2026-05-08 22:54 | -62.62608 | -151.62289 | 35033 ft | 546 kts | 129° |
| 2026-05-08 22:54 | -62.66073 | -151.47704 | 35039 ft | 545 kts | 129° |
| 2026-05-08 22:55 | -62.69531 | -151.33056 | 35037 ft | 545 kts | 128° |
| 2026-05-08 22:55 | -62.72974 | -151.18366 | 35043 ft | 544 kts | 128° |
| 2026-05-08 22:56 | -62.76412 | -151.03589 | 35032 ft | 542 kts | 128° |
| 2026-05-08 22:56 | -62.79801 | -150.88920 | 35038 ft | 541 kts | 128° |
| 2026-05-08 22:57 | -62.83159 | -150.74297 | 35040 ft | 540 kts | 128° |
| 2026-05-08 22:57 | -62.86519 | -150.59560 | 35034 ft | 540 kts | 128° |
| 2026-05-08 22:58 | -62.89865 | -150.44788 | 35042 ft | 539 kts | 127° |
| 2026-05-08 22:58 | -62.93164 | -150.30124 | 35034 ft | 538 kts | 127° |
| 2026-05-08 22:59 | -62.96475 | -150.15297 | 35039 ft | 537 kts | 127° |
| 2026-05-08 22:59 | -62.99754 | -150.00519 | 35036 ft | 538 kts | 127° |
| 2026-05-08 23:00 | -63.03003 | -149.85773 | 35038 ft | 536 kts | 126° |
| 2026-05-08 23:00 | -63.06226 | -149.71026 | 35031 ft | 536 kts | 126° |
| 2026-05-08 23:01 | -63.09460 | -149.56147 | 35044 ft | 537 kts | 125° |
| 2026-05-08 23:01 | -63.12674 | -149.41245 | 35046 ft | 537 kts | 125° |
| 2026-05-08 23:02 | -63.15846 | -149.26431 | 35047 ft | 536 kts | 125° |
| 2026-05-08 23:02 | -63.19028 | -149.11466 | 35075 ft | 536 kts | 124° |
| 2026-05-08 23:03 | -63.22191 | -148.96495 | 35118 ft | 538 kts | 124° |
| 2026-05-08 23:03 | -63.25352 | -148.81417 | 35118 ft | 537 kts | 124° |
| 2026-05-08 23:04 | -63.28468 | -148.66431 | 35117 ft | 535 kts | 123° |
| 2026-05-08 23:04 | -63.31578 | -148.51385 | 35121 ft | 536 kts | 123° |
| 2026-05-08 23:05 | -63.34674 | -148.36290 | 35123 ft | 535 kts | 122° |
| 2026-05-08 23:05 | -63.37762 | -148.21120 | 35119 ft | 535 kts | 122° |
| 2026-05-08 23:06 | -63.40799 | -148.06090 | 35120 ft | 534 kts | 122° |
| 2026-05-08 23:06 | -63.43836 | -147.90964 | 35120 ft | 534 kts | 121° |
| 2026-05-08 23:07 | -63.46854 | -147.75806 | 35118 ft | 533 kts | 121° |
| 2026-05-08 23:07 | -63.49840 | -147.60706 | 35123 ft | 533 kts | 121° |
| 2026-05-08 23:08 | -63.52826 | -147.45488 | 35123 ft | 534 kts | 121° |
| 2026-05-08 23:08 | -63.55807 | -147.30174 | 35120 ft | 533 kts | 121° |
| 2026-05-08 23:09 | -63.58744 | -147.14978 | 35117 ft | 532 kts | 120° |
| 2026-05-08 23:09 | -63.61673 | -146.99711 | 35122 ft | 532 kts | 120° |
| 2026-05-08 23:10 | -63.64589 | -146.84393 | 35120 ft | 531 kts | 120° |
| 2026-05-08 23:10 | -63.67472 | -146.69133 | 35121 ft | 530 kts | 120° |
| 2026-05-08 23:11 | -63.70326 | -146.53917 | 35108 ft | 528 kts | 119° |
| 2026-05-08 23:11 | -63.73174 | -146.38610 | 35099 ft | 527 kts | 119° |
| 2026-05-08 23:12 | -63.75992 | -146.23347 | 35101 ft | 526 kts | 118° |
| 2026-05-08 23:12 | -63.78784 | -146.08102 | 35100 ft | 526 kts | 118° |
| 2026-05-08 23:13 | -63.81558 | -145.92841 | 35102 ft | 526 kts | 117° |
| 2026-05-08 23:13 | -63.84337 | -145.77437 | 35104 ft | 526 kts | 117° |
| 2026-05-08 23:14 | -63.87083 | -145.62106 | 35102 ft | 526 kts | 117° |
| 2026-05-08 23:14 | -63.89357 | -145.49297 | 35099 ft | 526 kts | 117° |
| 2026-05-08 23:15 | -63.92529 | -145.31299 | 35102 ft | 525 kts | 117° |
| 2026-05-08 23:15 | -63.94786 | -145.18388 | 35103 ft | 525 kts | 117° |
| 2026-05-08 23:16 | -63.97456 | -145.03021 | 35112 ft | 525 kts | 117° |
| 2026-05-08 23:16 | -64.00128 | -144.87500 | 35112 ft | 524 kts | 117° |
| 2026-05-08 23:17 | -64.02780 | -144.71963 | 35112 ft | 522 kts | 116° |
| 2026-05-08 23:17 | -64.05367 | -144.56686 | 35109 ft | 520 kts | 116° |
| 2026-05-08 23:18 | -64.07967 | -144.41215 | 35113 ft | 520 kts | 116° |
| 2026-05-08 23:18 | -64.10536 | -144.25813 | 35110 ft | 520 kts | 115° |
| 2026-05-08 23:19 | -64.13114 | -144.10215 | 35112 ft | 521 kts | 115° |
| 2026-05-08 23:19 | -64.15660 | -143.94683 | 35111 ft | 521 kts | 115° |
| 2026-05-08 23:20 | -64.18192 | -143.79105 | 35111 ft | 521 kts | 115° |
| 2026-05-08 23:20 | -64.20693 | -143.63592 | 35111 ft | 520 kts | 115° |
| 2026-05-08 23:21 | -64.23178 | -143.48052 | 35111 ft | 520 kts | 115° |
| 2026-05-08 23:21 | -64.25657 | -143.32409 | 35110 ft | 520 kts | 114° |
| 2026-05-08 23:22 | -64.28114 | -143.16776 | 35112 ft | 519 kts | 114° |
| 2026-05-08 23:22 | -64.30550 | -143.01142 | 35111 ft | 519 kts | 114° |
| 2026-05-08 23:23 | -64.32974 | -142.85448 | 35112 ft | 518 kts | 114° |
| 2026-05-08 23:23 | -64.35384 | -142.69714 | 35109 ft | 517 kts | 114° |
| 2026-05-08 23:24 | -64.37750 | -142.54127 | 35112 ft | 517 kts | 113° |
| 2026-05-08 23:24 | -64.40116 | -142.38410 | 35111 ft | 517 kts | 113° |
| 2026-05-08 23:25 | -64.42466 | -142.22649 | 35110 ft | 517 kts | 113° |
| 2026-05-08 23:25 | -64.44799 | -142.06865 | 35111 ft | 517 kts | 113° |
| 2026-05-08 23:26 | -64.47092 | -141.91217 | 35111 ft | 517 kts | 112° |
| 2026-05-08 23:26 | -64.49390 | -141.75392 | 35110 ft | 517 kts | 112° |
| 2026-05-08 23:27 | -64.51666 | -141.59576 | 35110 ft | 517 kts | 112° |
| 2026-05-08 23:27 | -64.53935 | -141.43657 | 35111 ft | 517 kts | 112° |
| 2026-05-08 23:28 | -64.56166 | -141.27845 | 35113 ft | 516 kts | 112° |
| 2026-05-08 23:28 | -64.58394 | -141.11945 | 35109 ft | 516 kts | 112° |
| 2026-05-08 23:29 | -64.60601 | -140.96029 | 35112 ft | 516 kts | 111° |
| 2026-05-08 23:29 | -64.62778 | -140.80175 | 35113 ft | 517 kts | 111° |
| 2026-05-08 23:30 | -64.64954 | -140.64186 | 35125 ft | 517 kts | 111° |
| 2026-05-08 23:30 | -64.67111 | -140.48180 | 35130 ft | 518 kts | 111° |
| 2026-05-08 23:31 | -64.69264 | -140.32046 | 35128 ft | 518 kts | 111° |
| 2026-05-08 23:31 | -64.71394 | -140.15937 | 35131 ft | 518 kts | 111° |
| 2026-05-08 23:32 | -64.73490 | -139.99917 | 35125 ft | 518 kts | 111° |
| 2026-05-08 23:32 | -64.75587 | -139.83742 | 35132 ft | 518 kts | 110° |
| 2026-05-08 23:33 | -64.77657 | -139.67599 | 35129 ft | 518 kts | 110° |
| 2026-05-08 23:33 | -64.79707 | -139.51455 | 35129 ft | 518 kts | 110° |
| 2026-05-08 23:34 | -64.81750 | -139.35211 | 35129 ft | 517 kts | 110° |
| 2026-05-08 23:34 | -64.83776 | -139.18928 | 35126 ft | 517 kts | 109° |
| 2026-05-08 23:35 | -64.85770 | -139.02747 | 35117 ft | 517 kts | 109° |
| 2026-05-08 23:35 | -64.87757 | -138.86454 | 35109 ft | 518 kts | 109° |
| 2026-05-08 23:36 | -64.89710 | -138.70264 | 35112 ft | 518 kts | 109° |
| 2026-05-08 23:36 | -64.91674 | -138.53816 | 35112 ft | 518 kts | 109° |
| 2026-05-08 23:37 | -64.93606 | -138.37457 | 35110 ft | 518 kts | 109° |
| 2026-05-08 23:37 | -64.95510 | -138.21159 | 35111 ft | 518 kts | 108° |
| 2026-05-08 23:38 | -64.97407 | -138.04746 | 35112 ft | 518 kts | 108° |
| 2026-05-08 23:38 | -64.99291 | -137.88281 | 35111 ft | 519 kts | 108° |
| 2026-05-08 23:39 | -65.01152 | -137.71836 | 35112 ft | 518 kts | 108° |
| 2026-05-08 23:39 | -65.02986 | -137.55410 | 35109 ft | 518 kts | 108° |
| 2026-05-08 23:40 | -65.04821 | -137.38800 | 35111 ft | 519 kts | 107° |
| 2026-05-08 23:40 | -65.06618 | -137.22362 | 35124 ft | 519 kts | 107° |
| 2026-05-08 23:41 | -65.08417 | -137.05732 | 35130 ft | 519 kts | 107° |
| 2026-05-08 23:41 | -65.10186 | -136.89154 | 35125 ft | 520 kts | 107° |
| 2026-05-08 23:42 | -65.11941 | -136.72524 | 35132 ft | 520 kts | 107° |
| 2026-05-08 23:42 | -65.13684 | -136.55820 | 35131 ft | 520 kts | 106° |
| 2026-05-08 23:43 | -65.15396 | -136.39207 | 35129 ft | 519 kts | 106° |
| 2026-05-08 23:43 | -65.17093 | -136.22545 | 35131 ft | 519 kts | 106° |
| 2026-05-08 23:44 | -65.18784 | -136.05730 | 35132 ft | 520 kts | 106° |
| 2026-05-08 23:44 | -65.20439 | -135.89065 | 35126 ft | 519 kts | 105° |
| 2026-05-08 23:45 | -65.22089 | -135.72251 | 35128 ft | 519 kts | 105° |
| 2026-05-08 23:45 | -65.23718 | -135.55431 | 35129 ft | 519 kts | 105° |
| 2026-05-08 23:46 | -65.25325 | -135.38619 | 35130 ft | 520 kts | 105° |
| 2026-05-08 23:46 | -65.26905 | -135.21876 | 35128 ft | 520 kts | 105° |
| 2026-05-08 23:47 | -65.28480 | -135.04979 | 35131 ft | 520 kts | 104° |
| 2026-05-08 23:47 | -65.30026 | -134.88164 | 35129 ft | 520 kts | 104° |
| 2026-05-08 23:48 | -65.31564 | -134.71225 | 35128 ft | 520 kts | 104° |
| 2026-05-08 23:48 | -65.33076 | -134.54326 | 35131 ft | 520 kts | 104° |
| 2026-05-08 23:49 | -65.34575 | -134.37361 | 35132 ft | 520 kts | 104° |
| 2026-05-08 23:49 | -65.36038 | -134.20532 | 35131 ft | 519 kts | 103° |
| 2026-05-08 23:50 | -65.37501 | -134.03496 | 35128 ft | 520 kts | 103° |
| 2026-05-08 23:50 | -65.38942 | -133.86476 | 35127 ft | 520 kts | 103° |
| 2026-05-08 23:51 | -65.40360 | -133.69468 | 35127 ft | 520 kts | 103° |
| 2026-05-08 23:51 | -65.41752 | -133.52526 | 35128 ft | 520 kts | 103° |
| 2026-05-08 23:52 | -65.43141 | -133.35381 | 35130 ft | 520 kts | 103° |
| 2026-05-08 23:52 | -65.44495 | -133.18412 | 35129 ft | 520 kts | 102° |
| 2026-05-08 23:53 | -65.45841 | -133.01284 | 35131 ft | 521 kts | 102° |
| 2026-05-08 23:53 | -65.47168 | -132.84130 | 35130 ft | 521 kts | 102° |
| 2026-05-08 23:54 | -65.48467 | -132.67055 | 35131 ft | 521 kts | 102° |
| 2026-05-08 23:55 | -65.50394 | -132.41258 | 35130 ft | 521 kts | 102° |
| 2026-05-08 23:55 | -65.51650 | -132.24089 | 35133 ft | 520 kts | 101° |
| 2026-05-08 23:56 | -65.52881 | -132.06993 | 35133 ft | 520 kts | 101° |
| 2026-05-08 23:56 | -65.54105 | -131.89675 | 35126 ft | 520 kts | 101° |
| 2026-05-08 23:57 | -65.55297 | -131.72533 | 35127 ft | 520 kts | 101° |
| 2026-05-08 23:57 | -65.56478 | -131.55264 | 35128 ft | 520 kts | 101° |
| 2026-05-08 23:58 | -65.57628 | -131.38149 | 35132 ft | 520 kts | 101° |
| 2026-05-08 23:58 | -65.58769 | -131.20832 | 35129 ft | 520 kts | 100° |
| 2026-05-08 23:59 | -65.59885 | -131.03623 | 35130 ft | 520 kts | 100° |
| 2026-05-08 23:59 | -65.60984 | -130.86328 | 35131 ft | 520 kts | 100° |
| 2026-05-09 00:00 | -65.62065 | -130.69005 | 35130 ft | 520 kts | 100° |
| 2026-05-09 00:00 | -65.63122 | -130.51737 | 35127 ft | 520 kts | 99° |
| 2026-05-09 00:01 | -65.64170 | -130.34338 | 35132 ft | 520 kts | 99° |
| 2026-05-09 00:01 | -65.65196 | -130.17097 | 35132 ft | 520 kts | 101° |
| 2026-05-09 00:02 | -65.66785 | -129.99984 | 35130 ft | 517 kts | 106° |
| 2026-05-09 00:02 | -65.68588 | -129.83217 | 35126 ft | 516 kts | 107° |
| 2026-05-09 00:03 | -65.70091 | -129.69062 | 35130 ft | 517 kts | 106° |
| 2026-05-09 00:03 | -65.71836 | -129.52147 | 35130 ft | 518 kts | 105° |
| 2026-05-09 00:04 | -65.73546 | -129.35189 | 35132 ft | 518 kts | 105° |
| 2026-05-09 00:04 | -65.75240 | -129.18150 | 35126 ft | 518 kts | 105° |
| 2026-05-09 00:05 | -65.76912 | -129.01142 | 35134 ft | 518 kts | 105° |
| 2026-05-09 00:05 | -65.78570 | -128.84063 | 35131 ft | 519 kts | 105° |
| 2026-05-09 00:06 | -65.80213 | -128.66924 | 35132 ft | 519 kts | 105° |
| 2026-05-09 00:06 | -65.81845 | -128.49691 | 35126 ft | 519 kts | 104° |
| 2026-05-09 00:07 | -65.83436 | -128.32658 | 35131 ft | 519 kts | 104° |
| 2026-05-09 00:07 | -65.85024 | -128.15424 | 35129 ft | 519 kts | 104° |
| 2026-05-09 00:08 | -65.86584 | -127.98276 | 35129 ft | 519 kts | 104° |
| 2026-05-09 00:08 | -65.88129 | -127.81057 | 35168 ft | 519 kts | 104° |
| 2026-05-09 00:09 | -65.89662 | -127.63725 | 35218 ft | 520 kts | 103° |
| 2026-05-09 00:09 | -65.91165 | -127.46512 | 35221 ft | 520 kts | 103° |
| 2026-05-09 00:10 | -65.92660 | -127.29134 | 35221 ft | 520 kts | 103° |
| 2026-05-09 00:10 | -65.94129 | -127.11808 | 35222 ft | 519 kts | 103° |
| 2026-05-09 00:11 | -65.95573 | -126.94507 | 35219 ft | 519 kts | 103° |
| 2026-05-09 00:11 | -65.97002 | -126.77188 | 35223 ft | 520 kts | 103° |
| 2026-05-09 00:12 | -65.98419 | -126.59742 | 35220 ft | 520 kts | 103° |
| 2026-05-09 00:12 | -65.99807 | -126.42370 | 35225 ft | 520 kts | 102° |
| 2026-05-09 00:13 | -66.01183 | -126.24885 | 35219 ft | 520 kts | 102° |
| 2026-05-09 00:13 | -66.02527 | -126.07557 | 35222 ft | 519 kts | 102° |
| 2026-05-09 00:14 | -66.03867 | -125.89996 | 35221 ft | 520 kts | 102° |
| 2026-05-09 00:14 | -66.05166 | -125.72682 | 35220 ft | 520 kts | 102° |
| 2026-05-09 00:15 | -66.06469 | -125.55066 | 35221 ft | 520 kts | 101° |
| 2026-05-09 00:15 | -66.07741 | -125.37568 | 35223 ft | 519 kts | 101° |
| 2026-05-09 00:16 | -66.08995 | -125.19997 | 35224 ft | 519 kts | 101° |
| 2026-05-09 00:16 | -66.10218 | -125.02584 | 35235 ft | 518 kts | 101° |
| 2026-05-09 00:17 | -66.11435 | -124.84973 | 35229 ft | 518 kts | 101° |
| 2026-05-09 00:17 | -66.12616 | -124.67556 | 35211 ft | 518 kts | 101° |
| 2026-05-09 00:18 | -66.13795 | -124.49895 | 35194 ft | 518 kts | 101° |
| 2026-05-09 00:18 | -66.14947 | -124.32300 | 35195 ft | 519 kts | 100° |
| 2026-05-09 00:19 | -66.16072 | -124.14797 | 35193 ft | 519 kts | 100° |
| 2026-05-09 00:19 | -66.17188 | -123.97096 | 35195 ft | 520 kts | 100° |
| 2026-05-09 00:20 | -66.18282 | -123.79428 | 35193 ft | 520 kts | 100° |
| 2026-05-09 00:20 | -66.19351 | -123.61822 | 35192 ft | 519 kts | 99° |
| 2026-05-09 00:21 | -66.20404 | -123.44105 | 35196 ft | 518 kts | 99° |
| 2026-05-09 00:21 | -66.21433 | -123.26472 | 35195 ft | 518 kts | 99° |
| 2026-05-09 00:22 | -66.22447 | -123.08774 | 35192 ft | 517 kts | 99° |
| 2026-05-09 00:22 | -66.23435 | -122.91106 | 35194 ft | 516 kts | 99° |
| 2026-05-09 00:23 | -66.24392 | -122.73616 | 35196 ft | 517 kts | 98° |
| 2026-05-09 00:23 | -66.25341 | -122.55914 | 35205 ft | 517 kts | 98° |
| 2026-05-09 00:24 | -66.26268 | -122.38237 | 35202 ft | 517 kts | 98° |
| 2026-05-09 00:24 | -66.27175 | -122.20548 | 35204 ft | 517 kts | 98° |
| 2026-05-09 00:25 | -66.28065 | -122.02791 | 35202 ft | 517 kts | 98° |
| 2026-05-09 00:25 | -66.28933 | -121.85059 | 35204 ft | 517 kts | 98° |
| 2026-05-09 00:26 | -66.29778 | -121.67337 | 35203 ft | 516 kts | 97° |
| 2026-05-09 00:26 | -66.30603 | -121.49646 | 35200 ft | 516 kts | 97° |
| 2026-05-09 00:27 | -66.31410 | -121.31841 | 35205 ft | 516 kts | 97° |
| 2026-05-09 00:27 | -66.32193 | -121.14111 | 35200 ft | 515 kts | 97° |
| 2026-05-09 00:28 | -66.32953 | -120.96491 | 35202 ft | 515 kts | 96° |
| 2026-05-09 00:28 | -66.33697 | -120.78739 | 35204 ft | 514 kts | 96° |
| 2026-05-09 00:29 | -66.34415 | -120.61093 | 35201 ft | 514 kts | 96° |
| 2026-05-09 00:29 | -66.35118 | -120.43348 | 35204 ft | 514 kts | 96° |
| 2026-05-09 00:30 | -66.35796 | -120.25665 | 35204 ft | 514 kts | 96° |
| 2026-05-09 00:30 | -66.36462 | -120.07857 | 35202 ft | 515 kts | 96° |
| 2026-05-09 00:31 | -66.37101 | -119.90167 | 35205 ft | 515 kts | 95° |
| 2026-05-09 00:31 | -66.37726 | -119.72323 | 35211 ft | 514 kts | 95° |
| 2026-05-09 00:32 | -66.38323 | -119.54615 | 35212 ft | 514 kts | 95° |
| 2026-05-09 00:32 | -66.38902 | -119.36869 | 35212 ft | 513 kts | 95° |
| 2026-05-09 00:33 | -66.39466 | -119.19011 | 35212 ft | 513 kts | 95° |
| 2026-05-09 00:33 | -66.40006 | -119.01247 | 35212 ft | 513 kts | 94° |
| 2026-05-09 00:34 | -66.40522 | -118.83540 | 35211 ft | 512 kts | 94° |
| 2026-05-09 00:34 | -66.41016 | -118.65930 | 35213 ft | 513 kts | 94° |
| 2026-05-09 00:35 | -66.41493 | -118.48161 | 35212 ft | 513 kts | 94° |
| 2026-05-09 00:35 | -66.41951 | -118.30374 | 35212 ft | 513 kts | 94° |
| 2026-05-09 00:36 | -66.42390 | -118.12576 | 35213 ft | 513 kts | 94° |
| 2026-05-09 00:36 | -66.42808 | -117.94800 | 35212 ft | 513 kts | 93° |
| 2026-05-09 00:37 | -66.43202 | -117.77137 | 35212 ft | 513 kts | 93° |
| 2026-05-09 00:37 | -66.43582 | -117.59201 | 35211 ft | 512 kts | 93° |
| 2026-05-09 00:38 | -66.43936 | -117.41543 | 35212 ft | 512 kts | 92° |
| 2026-05-09 00:38 | -66.44273 | -117.23772 | 35212 ft | 512 kts | 92° |
| 2026-05-09 00:39 | -66.44589 | -117.06007 | 35215 ft | 512 kts | 92° |
| 2026-05-09 00:39 | -66.44885 | -116.88116 | 35210 ft | 511 kts | 92° |
| 2026-05-09 00:40 | -66.45156 | -116.70535 | 35213 ft | 510 kts | 92° |
| 2026-05-09 00:40 | -66.45412 | -116.52684 | 35219 ft | 511 kts | 91° |
| 2026-05-09 00:41 | -66.45758 | -116.26059 | 35221 ft | 511 kts | 91° |
| 2026-05-09 00:41 | -66.45962 | -116.08321 | 35221 ft | 511 kts | 91° |
| 2026-05-09 00:42 | -66.46146 | -115.90525 | 35221 ft | 511 kts | 91° |
| 2026-05-09 00:42 | -66.46309 | -115.72780 | 35221 ft | 511 kts | 91° |
| 2026-05-09 00:43 | -66.46453 | -115.55078 | 35221 ft | 510 kts | 90° |
| 2026-05-09 00:43 | -66.46576 | -115.37325 | 35221 ft | 509 kts | 90° |
| 2026-05-09 00:44 | -66.46679 | -115.19589 | 35222 ft | 509 kts | 90° |
| 2026-05-09 00:44 | -66.46761 | -115.01892 | 35221 ft | 509 kts | 90° |
| 2026-05-09 00:45 | -66.46826 | -114.84141 | 35221 ft | 509 kts | 90° |
| 2026-05-09 00:45 | -66.46869 | -114.66439 | 35223 ft | 509 kts | 89° |
| 2026-05-09 00:46 | -66.46891 | -114.48818 | 35222 ft | 509 kts | 89° |
| 2026-05-09 00:46 | -66.46895 | -114.31078 | 35222 ft | 509 kts | 89° |
| 2026-05-09 00:47 | -66.46877 | -114.13347 | 35220 ft | 509 kts | 89° |
| 2026-05-09 00:47 | -66.46841 | -113.95739 | 35222 ft | 510 kts | 89° |
| 2026-05-09 00:48 | -66.46783 | -113.78016 | 35221 ft | 509 kts | 88° |
| 2026-05-09 00:48 | -66.46704 | -113.60186 | 35221 ft | 509 kts | 88° |
| 2026-05-09 00:49 | -66.46608 | -113.42509 | 35223 ft | 509 kts | 88° |
| 2026-05-09 00:49 | -66.46493 | -113.24872 | 35221 ft | 509 kts | 88° |
| 2026-05-09 00:50 | -66.46355 | -113.07145 | 35222 ft | 509 kts | 88° |
| 2026-05-09 00:50 | -66.46197 | -112.89456 | 35220 ft | 508 kts | 87° |
| 2026-05-09 00:51 | -66.46022 | -112.71865 | 35223 ft | 509 kts | 87° |
| 2026-05-09 00:51 | -66.45822 | -112.54100 | 35221 ft | 508 kts | 87° |
| 2026-05-09 00:52 | -66.45608 | -112.36520 | 35225 ft | 509 kts | 86° |
| 2026-05-09 00:52 | -66.45411 | -112.21675 | 35231 ft | 509 kts | 86° |
| 2026-05-09 00:53 | -66.45113 | -112.01151 | 35230 ft | 509 kts | 86° |
| 2026-05-09 00:53 | -66.44836 | -111.83463 | 35232 ft | 509 kts | 86° |
| 2026-05-09 00:54 | -66.44588 | -111.68668 | 35230 ft | 509 kts | 86° |
| 2026-05-09 00:54 | -66.44275 | -111.50993 | 35230 ft | 509 kts | 85° |
| 2026-05-09 00:55 | -66.43942 | -111.33368 | 35231 ft | 508 kts | 85° |
| 2026-05-09 00:55 | -66.43588 | -111.15738 | 35233 ft | 508 kts | 85° |
| 2026-05-09 00:56 | -66.43217 | -110.98169 | 35230 ft | 508 kts | 85° |
| 2026-05-09 00:56 | -66.42822 | -110.80423 | 35228 ft | 508 kts | 84° |
| 2026-05-09 00:57 | -66.42413 | -110.62940 | 35233 ft | 508 kts | 84° |
| 2026-05-09 00:57 | -66.41979 | -110.45285 | 35230 ft | 508 kts | 84° |
| 2026-05-09 00:58 | -66.41527 | -110.27729 | 35230 ft | 508 kts | 84° |
| 2026-05-09 00:58 | -66.41053 | -110.10052 | 35230 ft | 508 kts | 84° |
| 2026-05-09 00:59 | -66.40561 | -109.92439 | 35231 ft | 509 kts | 84° |
| 2026-05-09 00:59 | -66.40052 | -109.74939 | 35228 ft | 508 kts | 83° |
| 2026-05-09 01:00 | -66.39519 | -109.57288 | 35232 ft | 508 kts | 83° |
| 2026-05-09 01:00 | -66.38966 | -109.39709 | 35230 ft | 508 kts | 83° |
| 2026-05-09 01:01 | -66.38397 | -109.22217 | 35268 ft | 507 kts | 83° |
| 2026-05-09 01:01 | -66.37805 | -109.04635 | 35318 ft | 509 kts | 83° |
| 2026-05-09 01:02 | -66.37196 | -108.87122 | 35323 ft | 509 kts | 82° |
| 2026-05-09 01:02 | -66.36564 | -108.69513 | 35322 ft | 509 kts | 82° |
| 2026-05-09 01:03 | -66.35915 | -108.52030 | 35322 ft | 509 kts | 82° |
| 2026-05-09 01:03 | -66.35245 | -108.34463 | 35322 ft | 510 kts | 82° |
| 2026-05-09 01:04 | -66.34550 | -108.16854 | 35323 ft | 510 kts | 82° |
| 2026-05-09 01:04 | -66.33838 | -107.99277 | 35322 ft | 510 kts | 81° |
| 2026-05-09 01:05 | -66.33106 | -107.81688 | 35322 ft | 511 kts | 81° |
| 2026-05-09 01:06 | -66.31970 | -107.55350 | 35377 ft | 510 kts | 81° |
| 2026-05-09 01:06 | -66.31191 | -107.37871 | 35374 ft | 510 kts | 81° |
| 2026-05-09 01:07 | -66.30386 | -107.20304 | 35376 ft | 509 kts | 81° |
| 2026-05-09 01:07 | -66.29565 | -107.02798 | 35378 ft | 509 kts | 80° |
| 2026-05-09 01:08 | -66.28733 | -106.85426 | 35384 ft | 509 kts | 80° |
| 2026-05-09 01:08 | -66.27872 | -106.67937 | 35389 ft | 510 kts | 80° |
| 2026-05-09 01:09 | -66.26993 | -106.50466 | 35384 ft | 510 kts | 79° |
| 2026-05-09 01:09 | -66.26096 | -106.33053 | 35387 ft | 510 kts | 79° |
| 2026-05-09 01:10 | -66.25177 | -106.15603 | 35385 ft | 511 kts | 79° |
| 2026-05-09 01:10 | -66.24240 | -105.98168 | 35387 ft | 511 kts | 79° |
| 2026-05-09 01:11 | -66.23279 | -105.80686 | 35383 ft | 511 kts | 79° |
| 2026-05-09 01:11 | -66.22299 | -105.63242 | 35373 ft | 511 kts | 79° |
| 2026-05-09 01:12 | -66.21301 | -105.45810 | 35370 ft | 510 kts | 78° |
| 2026-05-09 01:12 | -66.20290 | -105.28523 | 35369 ft | 509 kts | 78° |
| 2026-05-09 01:13 | -66.19253 | -105.11140 | 35367 ft | 509 kts | 78° |
| 2026-05-09 01:13 | -66.18205 | -104.93898 | 35371 ft | 509 kts | 78° |
| 2026-05-09 01:14 | -66.17132 | -104.76571 | 35365 ft | 509 kts | 78° |
| 2026-05-09 01:14 | -66.16036 | -104.59221 | 35370 ft | 510 kts | 77° |
| 2026-05-09 01:15 | -66.14923 | -104.41911 | 35364 ft | 510 kts | 77° |
| 2026-05-09 01:15 | -66.13788 | -104.24586 | 35371 ft | 510 kts | 77° |
| 2026-05-09 01:16 | -66.12635 | -104.07297 | 35368 ft | 510 kts | 77° |
| 2026-05-09 01:16 | -66.11473 | -103.90151 | 35369 ft | 510 kts | 77° |
| 2026-05-09 01:17 | -66.09678 | -103.64249 | 35366 ft | 510 kts | 76° |
| 2026-05-09 01:17 | -66.08459 | -103.47031 | 35359 ft | 510 kts | 76° |
| 2026-05-09 01:18 | -66.07220 | -103.29805 | 35358 ft | 510 kts | 76° |
| 2026-05-09 01:18 | -66.05973 | -103.12721 | 35357 ft | 510 kts | 76° |
| 2026-05-09 01:19 | -66.04695 | -102.95567 | 35356 ft | 510 kts | 75° |
| 2026-05-09 01:19 | -66.03307 | -102.78455 | 35362 ft | 510 kts | 75° |
| 2026-05-09 01:20 | -66.01866 | -102.61403 | 35355 ft | 510 kts | 74° |
| 2026-05-09 01:20 | -66.00413 | -102.44289 | 35363 ft | 511 kts | 74° |
| 2026-05-09 01:21 | -65.98957 | -102.27249 | 35356 ft | 512 kts | 74° |
| 2026-05-09 01:21 | -65.97477 | -102.10131 | 35360 ft | 512 kts | 74° |
| 2026-05-09 01:22 | -65.95979 | -101.93044 | 35357 ft | 512 kts | 73° |
| 2026-05-09 01:22 | -65.94470 | -101.76083 | 35358 ft | 512 kts | 73° |
| 2026-05-09 01:23 | -65.92925 | -101.58962 | 35357 ft | 511 kts | 73° |
| 2026-05-09 01:23 | -65.91375 | -101.41986 | 35359 ft | 511 kts | 73° |
| 2026-05-09 01:24 | -65.89813 | -101.25122 | 35360 ft | 510 kts | 73° |
| 2026-05-09 01:24 | -65.88219 | -101.08138 | 35359 ft | 510 kts | 73° |
| 2026-05-09 01:25 | -65.86621 | -100.91328 | 35363 ft | 510 kts | 72° |
| 2026-05-09 01:25 | -65.84993 | -100.74417 | 35357 ft | 510 kts | 72° |
| 2026-05-09 01:26 | -65.83354 | -100.57606 | 35361 ft | 510 kts | 72° |
| 2026-05-09 01:26 | -65.81700 | -100.40835 | 35359 ft | 510 kts | 72° |
| 2026-05-09 01:27 | -65.80013 | -100.23948 | 35356 ft | 510 kts | 72° |
| 2026-05-09 01:27 | -65.78328 | -100.07303 | 35362 ft | 509 kts | 72° |
| 2026-05-09 01:28 | -65.76615 | -99.90579 | 35358 ft | 509 kts | 72° |
| 2026-05-09 01:28 | -65.74874 | -99.73790 | 35626 ft | 513 kts | 71° |
| 2026-05-09 01:29 | -65.73995 | -99.65380 | 35987 ft | 511 kts | 71° |
| 2026-05-09 01:29 | -65.73121 | -99.57065 | 36356 ft | 509 kts | 71° |
| 2026-05-09 01:29 | -65.72241 | -99.48739 | 36660 ft | 509 kts | 71° |
| 2026-05-09 01:29 | -65.71359 | -99.40430 | 37030 ft | 506 kts | 71° |
| 2026-05-09 01:30 | -65.70483 | -99.32224 | 37393 ft | 504 kts | 71° |
| 2026-05-09 01:30 | -65.69592 | -99.23944 | 37334 ft | 504 kts | 70° |
| 2026-05-09 01:30 | -65.67806 | -99.07496 | 37347 ft | 500 kts | 70° |
| 2026-05-09 01:31 | -65.66028 | -98.91310 | 37353 ft | 500 kts | 70° |
| 2026-05-09 01:31 | -65.64221 | -98.75038 | 37348 ft | 500 kts | 70° |
| 2026-05-09 01:32 | -65.62396 | -98.58782 | 37362 ft | 500 kts | 70° |
| 2026-05-09 01:32 | -65.60556 | -98.42561 | 37349 ft | 500 kts | 70° |
| 2026-05-09 01:33 | -65.55002 | -97.94609 | 37348 ft | 499 kts | 69° |
| 2026-05-09 01:33 | -65.47261 | -97.30186 | 37347 ft | 500 kts | 69° |
| 2026-05-09 01:34 | -65.39242 | -96.66098 | 37351 ft | 500 kts | 68° |
| 2026-05-09 01:34 | -65.30949 | -96.02372 | 37346 ft | 500 kts | 67° |
| 2026-05-09 01:35 | -65.22402 | -95.39154 | 37350 ft | 500 kts | 66° |
| 2026-05-09 01:35 | -65.13586 | -94.76310 | 37327 ft | 499 kts | 65° |
| 2026-05-09 01:36 | -65.04574 | -94.14339 | 37338 ft | 500 kts | 64° |
| 2026-05-09 01:36 | -64.95247 | -93.52382 | 37338 ft | 499 kts | 64° |
| 2026-05-09 01:37 | -64.85676 | -92.90935 | 37322 ft | 498 kts | 63° |
| 2026-05-09 01:37 | -64.75918 | -92.30330 | 37337 ft | 498 kts | 62° |
| 2026-05-09 01:38 | -64.65885 | -91.69983 | 37329 ft | 496 kts | 61° |
| 2026-05-09 01:38 | -64.55637 | -91.10262 | 37345 ft | 495 kts | 60° |
| 2026-05-09 01:39 | -64.45174 | -90.51128 | 37337 ft | 494 kts | 59° |
| 2026-05-09 01:39 | -64.34574 | -89.92979 | 37345 ft | 491 kts | 59° |
| 2026-05-09 01:40 | -64.23728 | -89.35200 | 37343 ft | 491 kts | 58° |
| 2026-05-09 01:40 | -64.12676 | -88.77969 | 37347 ft | 490 kts | 57° |
| 2026-05-09 01:41 | -64.01480 | -88.21584 | 37328 ft | 485 kts | 57° |
| 2026-05-09 01:41 | -63.90152 | -87.66084 | 37348 ft | 483 kts | 56° |
| 2026-05-09 01:42 | -63.78602 | -87.10960 | 37340 ft | 483 kts | 56° |
| 2026-05-09 01:42 | -63.68898 | -86.65744 | 37332 ft | 480 kts | 55° |
| 2026-05-09 01:43 | -63.57068 | -86.11905 | 37347 ft | 480 kts | 54° |
| 2026-05-09 01:43 | -63.43080 | -85.49942 | 37339 ft | 479 kts | 54° |
| 2026-05-09 01:44 | -63.32874 | -85.05832 | 37338 ft | 476 kts | 54° |
| 2026-05-09 01:44 | -63.20554 | -84.53763 | 37344 ft | 475 kts | 53° |
| 2026-05-09 01:45 | -63.08116 | -84.02420 | 37338 ft | 475 kts | 53° |
| 2026-05-09 01:45 | -62.95493 | -83.51513 | 37344 ft | 472 kts | 52° |
| 2026-05-09 01:46 | -62.82736 | -83.01244 | 37361 ft | 471 kts | 51° |
| 2026-05-09 01:46 | -62.69786 | -82.51338 | 37346 ft | 471 kts | 51° |
| 2026-05-09 01:47 | -62.56816 | -82.02463 | 37346 ft | 468 kts | 51° |
| 2026-05-09 01:47 | -62.43611 | -81.53766 | 37349 ft | 468 kts | 50° |
| 2026-05-09 01:48 | -62.30286 | -81.05677 | 37349 ft | 469 kts | 50° |
| 2026-05-09 01:48 | -62.16699 | -80.57668 | 37363 ft | 472 kts | 49° |
| 2026-05-09 01:49 | -62.02860 | -80.09769 | 37348 ft | 472 kts | 49° |
| 2026-05-09 01:49 | -61.94876 | -79.88904 | 37375 ft | 453 kts | 35° |
| 2026-05-09 01:49 | -61.85838 | -79.70060 | 37380 ft | 455 kts | 35° |
| 2026-05-09 01:50 | -61.67767 | -79.32404 | 37346 ft | 455 kts | 35° |
| 2026-05-09 01:50 | -61.49537 | -78.95070 | 37348 ft | 459 kts | 34° |
| 2026-05-09 01:51 | -61.31247 | -78.58246 | 37347 ft | 459 kts | 34° |
| 2026-05-09 01:51 | -61.12694 | -78.21532 | 37350 ft | 461 kts | 34° |
| 2026-05-09 01:52 | -60.93976 | -77.85117 | 37346 ft | 462 kts | 33° |
| 2026-05-09 01:52 | -60.75090 | -77.49001 | 37365 ft | 468 kts | 33° |
| 2026-05-09 01:53 | -60.55921 | -77.12948 | 37344 ft | 468 kts | 33° |
| 2026-05-09 01:53 | -60.36573 | -76.77186 | 37355 ft | 471 kts | 33° |
| 2026-05-09 01:54 | -60.17142 | -76.41849 | 37349 ft | 475 kts | 33° |
| 2026-05-09 01:54 | -59.97329 | -76.06425 | 37361 ft | 478 kts | 32° |
| 2026-05-09 01:55 | -59.77388 | -75.71359 | 37360 ft | 478 kts | 32° |
| 2026-05-09 01:55 | -59.57291 | -75.36610 | 37362 ft | 481 kts | 32° |
| 2026-05-09 01:56 | -59.37015 | -75.02120 | 37371 ft | 487 kts | 32° |
| 2026-05-09 01:56 | -59.16288 | -74.67442 | 37353 ft | 490 kts | 32° |
| 2026-05-09 01:57 | -58.95373 | -74.33027 | 37364 ft | 493 kts | 32° |
| 2026-05-09 01:57 | -58.74379 | -73.99041 | 37365 ft | 496 kts | 32° |
| 2026-05-09 01:58 | -58.52962 | -73.64943 | 37374 ft | 503 kts | 32° |
| 2026-05-09 01:58 | -58.31432 | -73.31212 | 37355 ft | 502 kts | 32° |
| 2026-05-09 01:59 | -58.09639 | -72.97632 | 37374 ft | 505 kts | 32° |
| 2026-05-09 01:59 | -57.87579 | -72.64189 | 37359 ft | 512 kts | 33° |
| 2026-05-09 02:00 | -57.65338 | -72.31006 | 37355 ft | 514 kts | 33° |
| 2026-05-09 02:00 | -57.42853 | -71.98005 | 37365 ft | 514 kts | 32° |
| 2026-05-09 02:01 | -57.20149 | -71.65218 | 37372 ft | 519 kts | 33° |
| 2026-05-09 02:01 | -56.97287 | -71.32723 | 37359 ft | 523 kts | 33° |
| 2026-05-09 02:02 | -56.74053 | -71.00227 | 37366 ft | 527 kts | 33° |
| 2026-05-09 02:02 | -56.50583 | -70.67922 | 37360 ft | 530 kts | 34° |
| 2026-05-09 02:03 | -56.26916 | -70.35861 | 37349 ft | 534 kts | 34° |
| 2026-05-09 02:03 | -56.02965 | -70.03919 | 37351 ft | 538 kts | 34° |
| 2026-05-09 02:04 | -55.91699 | -69.87398 | 36336 ft | 524 kts | 39° |
| 2026-05-09 02:04 | -55.80640 | -69.70449 | 33792 ft | 523 kts | 39° |
| 2026-05-09 02:04 | -55.69641 | -69.53845 | 31644 ft | 511 kts | 39° |
| 2026-05-09 02:04 | -55.58947 | -69.37814 | 29718 ft | 494 kts | 39° |
| 2026-05-09 02:05 | -55.51143 | -69.26195 | 28439 ft | 478 kts | 39° |
| 2026-05-09 02:05 | -55.48724 | -69.22606 | 28159 ft | 469 kts | 40° |
| 2026-05-09 02:05 | -55.46240 | -69.18924 | 27845 ft | 461 kts | 40° |
| 2026-05-09 02:05 | -55.43801 | -69.15298 | 27392 ft | 456 kts | 40° |
| 2026-05-09 02:06 | -55.41370 | -69.11711 | 26879 ft | 454 kts | 40° |
| 2026-05-09 02:06 | -55.38989 | -69.08210 | 26492 ft | 449 kts | 40° |
| 2026-05-09 02:06 | -55.36602 | -69.04703 | 26132 ft | 443 kts | 40° |
| 2026-05-09 02:07 | -55.31925 | -68.97842 | 25361 ft | 432 kts | 40° |
| 2026-05-09 02:07 | -55.29622 | -68.94470 | 24959 ft | 428 kts | 41° |
| 2026-05-09 02:07 | -55.27359 | -68.91159 | 24517 ft | 418 kts | 41° |
| 2026-05-09 02:07 | -55.25169 | -68.87958 | 23848 ft | 411 kts | 41° |
| 2026-05-09 02:08 | -55.22983 | -68.84769 | 23112 ft | 406 kts | 41° |
| 2026-05-09 02:08 | -55.20817 | -68.81614 | 22360 ft | 403 kts | 41° |
| 2026-05-09 02:08 | -55.18673 | -68.78495 | 21620 ft | 399 kts | 41° |
| 2026-05-09 02:08 | -55.16546 | -68.75407 | 20875 ft | 395 kts | 40° |
| 2026-05-09 02:09 | -55.14443 | -68.72357 | 20166 ft | 390 kts | 40° |
| 2026-05-09 02:09 | -55.12360 | -68.69342 | 19481 ft | 386 kts | 40° |
| 2026-05-09 02:09 | -55.10301 | -68.66365 | 18795 ft | 381 kts | 40° |
| 2026-05-09 02:09 | -55.08515 | -68.63787 | 18202 ft | 378 kts | 40° |
| 2026-05-09 02:10 | -55.06493 | -68.60871 | 17536 ft | 374 kts | 40° |
| 2026-05-09 02:10 | -55.04497 | -68.57993 | 16896 ft | 370 kts | 40° |
| 2026-05-09 02:10 | -55.02518 | -68.55149 | 16258 ft | 365 kts | 40° |
| 2026-05-09 02:10 | -55.00569 | -68.52348 | 15635 ft | 362 kts | 40° |
| 2026-05-09 02:11 | -54.98660 | -68.49609 | 15025 ft | 358 kts | 39° |
| 2026-05-09 02:11 | -54.96744 | -68.46861 | 14520 ft | 351 kts | 39° |
| 2026-05-09 02:11 | -54.94911 | -68.44238 | 14435 ft | 333 kts | 39° |
| 2026-05-09 02:11 | -54.93161 | -68.41736 | 14323 ft | 319 kts | 39° |
| 2026-05-09 02:12 | -54.91479 | -68.39333 | 14232 ft | 305 kts | 39° |
| 2026-05-09 02:12 | -54.89868 | -68.37034 | 14144 ft | 294 kts | 39° |
| 2026-05-09 02:12 | -54.88311 | -68.34817 | 14038 ft | 285 kts | 39° |
| 2026-05-09 02:12 | -54.86806 | -68.32675 | 13918 ft | 277 kts | 39° |
| 2026-05-09 02:13 | -54.85342 | -68.30549 | 13726 ft | 272 kts | 45° |
| 2026-05-09 02:13 | -54.84355 | -68.27806 | 13384 ft | 270 kts | 76° |
| 2026-05-09 02:13 | -54.84242 | -68.24604 | 13085 ft | 266 kts | 99° |
| 2026-05-09 02:13 | -54.84586 | -68.21524 | 12835 ft | 261 kts | 102° |
| 2026-05-09 02:14 | -54.84970 | -68.18432 | 12377 ft | 263 kts | 102° |
| 2026-05-09 02:14 | -54.85363 | -68.15311 | 11908 ft | 266 kts | 102° |
| 2026-05-09 02:14 | -54.85755 | -68.12171 | 11508 ft | 265 kts | 102° |
| 2026-05-09 02:14 | -54.86142 | -68.09046 | 11137 ft | 264 kts | 102° |
| 2026-05-09 02:15 | -54.86523 | -68.05933 | 10792 ft | 262 kts | 101° |
| 2026-05-09 02:15 | -54.86900 | -68.02839 | 10391 ft | 261 kts | 101° |
| 2026-05-09 02:15 | -54.87268 | -67.99791 | 10063 ft | 260 kts | 101° |
| 2026-05-09 02:15 | -54.87638 | -67.96712 | 9754 ft | 258 kts | 101° |
| 2026-05-09 02:16 | -54.88004 | -67.93672 | 9447 ft | 257 kts | 101° |
| 2026-05-09 02:16 | -54.88367 | -67.90639 | 9148 ft | 256 kts | 101° |
| 2026-05-09 02:16 | -54.88728 | -67.87609 | 8846 ft | 256 kts | 101° |
| 2026-05-09 02:16 | -54.89086 | -67.84593 | 8369 ft | 255 kts | 101° |
| 2026-05-09 02:17 | -54.89401 | -67.81575 | 7621 ft | 253 kts | 92° |
| 2026-05-09 02:17 | -54.89056 | -67.78657 | 6844 ft | 246 kts | 60° |
| 2026-05-09 02:17 | -54.87933 | -67.76518 | 6112 ft | 239 kts | 31° |
| 2026-05-09 02:17 | -54.86408 | -67.75558 | 5371 ft | 233 kts | 5° |
| 2026-05-09 02:18 | -54.84828 | -67.75859 | 4628 ft | 228 kts | 340° |
| 2026-05-09 02:18 | -54.83519 | -67.77311 | 4070 ft | 215 kts | 313° |
| 2026-05-09 02:18 | -54.82747 | -67.79342 | 4082 ft | 192 kts | 297° |
| 2026-05-09 02:18 | -54.82386 | -67.81456 | 4039 ft | 176 kts | 273° |
| 2026-05-09 02:19 | -54.82487 | -67.83577 | 4103 ft | 185 kts | 268° |
| 2026-05-09 02:19 | -54.82581 | -67.85843 | 4094 ft | 179 kts | 268° |
| 2026-05-09 02:19 | -54.82659 | -67.87790 | 4064 ft | 149 kts | 269° |
| 2026-05-09 02:19 | -54.82731 | -67.89607 | 4074 ft | 150 kts | 268° |
| 2026-05-09 02:20 | -54.82813 | -67.91356 | 4063 ft | 144 kts | 268° |
| 2026-05-09 02:20 | -54.82924 | -67.93099 | 4089 ft | 152 kts | 268° |
| 2026-05-09 02:20 | -54.82968 | -67.94886 | 4065 ft | 147 kts | 270° |
| 2026-05-09 02:20 | -54.83042 | -67.96664 | 4071 ft | 147 kts | 269° |
| 2026-05-09 02:21 | -54.83117 | -67.98441 | 3854 ft | 147 kts | 269° |
| 2026-05-09 02:21 | -54.83187 | -68.00203 | 3633 ft | 145 kts | 269° |
| 2026-05-09 02:21 | -54.83258 | -68.01937 | 3423 ft | 143 kts | 270° |
| 2026-05-09 02:21 | -54.83326 | -68.03657 | 3194 ft | 142 kts | 270° |
| 2026-05-09 02:22 | -54.83390 | -68.05335 | 2989 ft | 141 kts | 269° |
| 2026-05-09 02:22 | -54.83453 | -68.07022 | 2785 ft | 138 kts | 269° |
| 2026-05-09 02:22 | -54.83520 | -68.08678 | 2567 ft | 136 kts | 267° |
| 2026-05-09 02:22 | -54.83583 | -68.10316 | 2352 ft | 137 kts | 266° |
| 2026-05-09 02:23 | -54.83647 | -68.11973 | 2140 ft | 138 kts | 264° |
| 2026-05-09 02:23 | -54.83713 | -68.13658 | 1924 ft | 141 kts | 264° |
| 2026-05-09 02:23 | -54.83780 | -68.15374 | 1702 ft | 144 kts | 264° |
| 2026-05-09 02:23 | -54.83847 | -68.17112 | 1471 ft | 145 kts | 265° |
| 2026-05-09 02:24 | -54.83914 | -68.18854 | 1262 ft | 143 kts | 267° |
| 2026-05-09 02:24 | -54.83981 | -68.20566 | 1028 ft | 141 kts | 267° |
| 2026-05-09 02:24 | -54.84047 | -68.22267 | 811 ft | 141 kts | 267° |
| 2026-05-09 02:24 | -54.84118 | -68.23961 | 579 ft | 142 kts | 265° |
| 2026-05-09 02:25 | -54.84201 | -68.25679 | 328 ft | 144 kts | 267° |
| 2026-05-09 02:25 | -54.84255 | -68.27390 | 132 ft | 137 kts | 267° |
| 2026-05-09 02:25 | -54.84312 | -68.28969 | 89 ft | 122 kts | 267° |
| 2026-05-09 02:25 | -54.84355 | -68.30180 | 85 ft | 79 kts | 266° |
| 2026-05-09 02:26 | -54.84378 | -68.30750 | 87 ft | 17 kts | 266° |
| 2026-05-09 02:26 | -54.84369 | -68.30916 | 88 ft | 12 kts | 307° |
| 2026-05-09 02:26 | -54.84308 | -68.30959 | 88 ft | 10 kts | 352° |
| 2026-05-09 02:26 | -54.84256 | -68.30969 | 87 ft | 8 kts | 354° |
| 2026-05-09 02:27 | -54.84240 | -68.30972 | 87 ft | 5 kts | 354° |
| 2026-05-09 02:27 | -54.84189 | -68.30981 | 87 ft | 6 kts | 354° |
| 2026-05-09 02:27 | -54.84145 | -68.30990 | 87 ft | 8 kts | 352° |
| 2026-05-09 02:27 | -54.84109 | -68.31022 | 87 ft | 6 kts | 310° |
| 2026-05-09 02:28 | -54.84098 | -68.31077 | 87 ft | 1 kts | 281° |
| 2026-05-09 02:28 | -54.84096 | -68.31096 | 87 ft | 2 kts | 279° |
| 2026-05-09 02:28 | -54.84090 | -68.31121 | 87 ft | 2 kts | 301° |
| 2026-05-09 02:28 | -54.84081 | -68.31135 | 92 ft | 3 kts | 320° |
| 2026-05-09 02:29 | -54.84062 | -68.31153 | 92 ft | 3 kts | 333° |
| 2026-05-09 02:29 | -54.84044 | -68.31165 | 87 ft | 1 kts | 341° |
| 2026-05-09 02:29 | -54.84037 | -68.31169 | 87 ft | 2 kts | 342° |
| 2026-05-09 02:29 | -54.84028 | -68.31174 | 87 ft | 0 kts | 342° |
| 2026-05-09 03:17 | -54.84028 | -68.31173 | 87 ft | 2 kts | 343° |
| 2026-05-09 03:17 | -54.84043 | -68.31171 | 91 ft | 4 kts | 350° |
| 2026-05-09 03:18 | -54.84070 | -68.31161 | 90 ft | 4 kts | 345° |
| 2026-05-09 03:18 | -54.84096 | -68.31149 | 91 ft | 3 kts | 345° |
| 2026-05-09 03:18 | -54.84098 | -68.31148 | 87 ft | 0 kts | 346° |
| 2026-05-09 03:20 | -54.84080 | -68.31186 | 91 ft | 5 kts | 292° |
| 2026-05-09 03:20 | -54.84082 | -68.31247 | 87 ft | 5 kts | 252° |
| 2026-05-09 03:21 | -54.84102 | -68.31299 | 87 ft | 5 kts | 224° |
| 2026-05-09 03:21 | -54.84135 | -68.31325 | 90 ft | 5 kts | 193° |
| 2026-05-09 03:21 | -54.84175 | -68.31326 | 87 ft | 7 kts | 177° |
| 2026-05-09 03:21 | -54.84228 | -68.31319 | 87 ft | 8 kts | 175° |
| 2026-05-09 03:22 | -54.84289 | -68.31310 | 91 ft | 9 kts | 175° |
| 2026-05-09 03:22 | -54.84354 | -68.31308 | 93 ft | 9 kts | 187° |
| 2026-05-09 03:22 | -54.84400 | -68.31386 | 92 ft | 11 kts | 255° |
| 2026-05-09 03:22 | -54.84403 | -68.31528 | 88 ft | 13 kts | 278° |
| 2026-05-09 03:23 | -54.84374 | -68.31682 | 87 ft | 10 kts | 279° |
| 2026-05-09 03:23 | -54.84420 | -68.31706 | 91 ft | 10 kts | 127° |
| 2026-05-09 03:23 | -54.84422 | -68.31668 | 87 ft | 0 kts | 85° |
| 2026-05-09 03:23 | -54.84407 | -68.31382 | 93 ft | 59 kts | 85° |
| 2026-05-09 03:24 | -54.84358 | -68.30246 | 85 ft | 128 kts | 86° |
| 2026-05-09 03:24 | -54.84284 | -68.28337 | 89 ft | 192 kts | 86° |
| 2026-05-09 03:24 | -54.84169 | -68.25750 | 507 ft | 217 kts | 85° |
| 2026-05-09 03:24 | -54.84114 | -68.23251 | 1415 ft | 209 kts | 91° |
| 2026-05-09 03:25 | -54.84508 | -68.20788 | 1603 ft | 228 kts | 127° |
| 2026-05-09 03:25 | -54.85765 | -68.19002 | 1869 ft | 240 kts | 142° |
| 2026-05-09 03:25 | -54.86797 | -68.16736 | 2083 ft | 247 kts | 107° |
| 2026-05-09 03:25 | -54.87082 | -68.13772 | 2410 ft | 254 kts | 97° |
| 2026-05-09 03:26 | -54.87376 | -68.10720 | 2908 ft | 255 kts | 99° |
| 2026-05-09 03:26 | -54.87745 | -68.07757 | 3601 ft | 251 kts | 99° |
| 2026-05-09 03:26 | -54.88162 | -68.04771 | 4044 ft | 257 kts | 101° |
| 2026-05-09 03:26 | -54.88618 | -68.01750 | 4537 ft | 260 kts | 102° |
| 2026-05-09 03:27 | -54.89098 | -67.98710 | 5024 ft | 262 kts | 103° |
| 2026-05-09 03:27 | -54.89588 | -67.95659 | 5551 ft | 264 kts | 103° |
| 2026-05-09 03:27 | -54.90085 | -67.92570 | 6026 ft | 267 kts | 103° |
| 2026-05-09 03:27 | -54.90597 | -67.89441 | 6475 ft | 269 kts | 107° |
| 2026-05-09 03:28 | -54.91551 | -67.86649 | 6765 ft | 276 kts | 139° |
| 2026-05-09 03:28 | -54.93199 | -67.85081 | 7118 ft | 277 kts | 170° |
| 2026-05-09 03:28 | -54.95106 | -67.85056 | 7529 ft | 274 kts | 198° |
| 2026-05-09 03:28 | -54.96783 | -67.86538 | 7917 ft | 270 kts | 226° |
| 2026-05-09 03:29 | -54.97847 | -67.89182 | 8288 ft | 266 kts | 255° |
| 2026-05-09 03:29 | -54.98064 | -67.92327 | 8669 ft | 263 kts | 281° |
| 2026-05-09 03:29 | -54.97486 | -67.95335 | 9050 ft | 262 kts | 303° |
| 2026-05-09 03:29 | -54.96471 | -67.97916 | 9392 ft | 264 kts | 306° |